Observation data for Dozier on 07/04/2020      Previous  Date       Current Mesonet Observations  Soil Data  Daily Summary Page  Observations in Plain Language
KDO1 040500Z 18006KT 29/17 A3003 RMK A01 T02910169  RH  048%=      5-min Rain = 0
KDO1 040501Z 18005KT 29/17 A3003 RMK A01 T02920169  RH  048%=      5-min Rain = 0
KDO1 040502Z 19005KT 29/17 A3003 RMK A01 T02920169  RH  048%=      5-min Rain = 0
KDO1 040503Z 18004KT 29/17 A3003 RMK A01 T02920170  RH  048%=      5-min Rain = 0
KDO1 040504Z 19004KT 29/17 A3003 RMK A01 T02920170  RH  048%=      5-min Rain = 0
KDO1 040505Z 19004KT 29/17 A3003 RMK A01 T02920170  RH  048%=      5-min Rain = 0
KDO1 040506Z 19004KT 29/17 A3003 RMK A01 T02910170  RH  048%=      5-min Rain = 0
KDO1 040507Z 19004KT 29/17 A3003 RMK A01 T02910170  RH  048%=      5-min Rain = 0
KDO1 040508Z 20004KT 29/17 A3003 RMK A01 T02900170  RH  048%=      5-min Rain = 0
KDO1 040509Z 20004KT 29/17 A3003 RMK A01 T02890170  RH  048%=      5-min Rain = 0
KDO1 040510Z 19004KT 29/17 A3003 RMK A01 T02890170  RH  049%=      5-min Rain = 0
KDO1 040511Z 19005KT 29/17 A3003 RMK A01 T02890171  RH  049%=      5-min Rain = 0
KDO1 040512Z 20005KT 29/17 A3003 RMK A01 T02890171  RH  049%=      5-min Rain = 0
KDO1 040513Z 19005KT 29/17 A3003 RMK A01 T02890171  RH  049%=      5-min Rain = 0
KDO1 040514Z 18005KT 29/17 A3003 RMK A01 T02880171  RH  049%=      5-min Rain = 0
KDO1 040515Z 18005KT 29/17 A3003 RMK A01 T02890171  RH  049%=      5-min Rain = 0
KDO1 040516Z 19005KT 29/17 A3003 RMK A01 T02890171  RH  049%=      5-min Rain = 0
KDO1 040517Z 18005KT 29/17 A3003 RMK A01 T02890171  RH  049%=      5-min Rain = 0
KDO1 040518Z 19004KT 29/17 A3003 RMK A01 T02890171  RH  049%=      5-min Rain = 0
KDO1 040519Z 19004KT 29/17 A3003 RMK A01 T02890171  RH  049%=      5-min Rain = 0
KDO1 040520Z 18004KT 29/17 A3003 RMK A01 T02890171  RH  049%=      5-min Rain = 0
KDO1 040521Z 19003KT 29/17 A3003 RMK A01 T02900171  RH  049%=      5-min Rain = 0
KDO1 040522Z 18003KT 29/17 A3003 RMK A01 T02890171  RH  049%=      5-min Rain = 0
KDO1 040523Z 19003KT 29/17 A3003 RMK A01 T02890171  RH  049%=      5-min Rain = 0
KDO1 040524Z 19003KT 29/17 A3003 RMK A01 T02890171  RH  049%=      5-min Rain = 0
KDO1 040525Z 18003KT 29/17 A3003 RMK A01 T02880171  RH  049%=      5-min Rain = 0
KDO1 040526Z 18003KT 29/17 A3003 RMK A01 T02880171  RH  049%=      5-min Rain = 0
KDO1 040527Z 18002KT 29/17 A3003 RMK A01 T02870171  RH  049%=      5-min Rain = 0
KDO1 040528Z 17002KT 29/17 A3003 RMK A01 T02870171  RH  049%=      5-min Rain = 0
KDO1 040529Z 16003KT 29/17 A3003 RMK A01 T02860171  RH  050%=      5-min Rain = 0
KDO1 040530Z 16002KT 29/17 A3003 RMK A01 T02850171  RH  050%=      5-min Rain = 0
KDO1 040531Z 17002KT 29/17 A3003 RMK A01 T02850171  RH  050%=      5-min Rain = 0
KDO1 040532Z 16002KT 29/17 A3003 RMK A01 T02850172  RH  050%=      5-min Rain = 0
KDO1 040533Z 16002KT 28/17 A3003 RMK A01 T02840172  RH  050%=      5-min Rain = 0
KDO1 040534Z 16002KT 28/17 A3003 RMK A01 T02840172  RH  051%=      5-min Rain = 0
KDO1 040535Z 17002KT 28/17 A3003 RMK A01 T02830171  RH  051%=      5-min Rain = 0
KDO1 040536Z 18002KT 28/17 A3003 RMK A01 T02830172  RH  051%=      5-min Rain = 0
KDO1 040537Z 18003KT 28/17 A3003 RMK A01 T02820172  RH  051%=      5-min Rain = 0
KDO1 040538Z 17002KT 28/17 A3003 RMK A01 T02820171  RH  051%=      5-min Rain = 0
KDO1 040539Z 19001KT 28/17 A3003 RMK A01 T02820171  RH  051%=      5-min Rain = 0
KDO1 040540Z 18001KT 28/17 A3003 RMK A01 T02810171  RH  051%=      5-min Rain = 0
KDO1 040541Z 18003KT 28/17 A3003 RMK A01 T02810171  RH  051%=      5-min Rain = 0
KDO1 040542Z 19002KT 28/17 A3003 RMK A01 T02810171  RH  051%=      5-min Rain = 0
KDO1 040543Z 20002KT 28/17 A3003 RMK A01 T02810171  RH  051%=      5-min Rain = 0
KDO1 040544Z 18006KT 28/17 A3003 RMK A01 T02810172  RH  051%=      5-min Rain = 0
KDO1 040545Z 16004KT 28/17 A3003 RMK A01 T02820171  RH  051%=      5-min Rain = 0
KDO1 040546Z 16003KT 28/17 A3003 RMK A01 T02840172  RH  050%=      5-min Rain = 0
KDO1 040547Z 16002KT 29/17 A3003 RMK A01 T02850172  RH  050%=      5-min Rain = 0
KDO1 040548Z 15002KT 29/17 A3003 RMK A01 T02860172  RH  050%=      5-min Rain = 0
KDO1 040549Z 15002KT 29/17 A3003 RMK A01 T02860172  RH  050%=      5-min Rain = 0
KDO1 040550Z 17003KT 29/17 A3003 RMK A01 T02850173  RH  051%=      5-min Rain = 0
KDO1 040551Z 16003KT 29/17 A3003 RMK A01 T02850172  RH  051%=      5-min Rain = 0
KDO1 040552Z 16002KT 28/17 A3003 RMK A01 T02840172  RH  051%=      5-min Rain = 0
KDO1 040553Z 16002KT 28/17 A3003 RMK A01 T02840172  RH  051%=      5-min Rain = 0
KDO1 040554Z 17003KT 28/17 A3003 RMK A01 T02840172  RH  051%=      5-min Rain = 0
KDO1 040555Z 17003KT 28/17 A3003 RMK A01 T02840172  RH  051%=      5-min Rain = 0
KDO1 040556Z 16003KT 28/17 A3003 RMK A01 T02840172  RH  051%=      5-min Rain = 0
KDO1 040557Z 17003KT 28/17 A3003 RMK A01 T02840172  RH  051%=      5-min Rain = 0
KDO1 040558Z 16003KT 28/17 A3003 RMK A01 T02840172  RH  051%=      5-min Rain = 0
KDO1 040559Z 18002KT 28/17 A3003 RMK A01 T02840173  RH  051%=      5-min Rain = 0
KDO1 040600Z 19002KT 28/17 A3003 RMK A01 T02840173  RH  051%=      5-min Rain = 0
KDO1 040601Z 19003KT 28/17 A3003 RMK A01 T02840173  RH  051%=      5-min Rain = 0
KDO1 040602Z 21003KT 28/17 A3003 RMK A01 T02830173  RH  051%=      5-min Rain = 0
KDO1 040603Z 19003KT 28/17 A3003 RMK A01 T02820173  RH  051%=      5-min Rain = 0
KDO1 040604Z 19003KT 28/17 A3003 RMK A01 T02820173  RH  052%=      5-min Rain = 0
KDO1 040605Z 20003KT 28/17 A3003 RMK A01 T02810173  RH  052%=      5-min Rain = 0
KDO1 040606Z 20003KT 28/17 A3003 RMK A01 T02810173  RH  052%=      5-min Rain = 0
KDO1 040607Z 21002KT 28/17 A3003 RMK A01 T02800173  RH  052%=      5-min Rain = 0
KDO1 040608Z 22003KT 28/17 A3002 RMK A01 T02800173  RH  052%=      5-min Rain = 0
KDO1 040609Z 21003KT 28/17 A3002 RMK A01 T02790172  RH  052%=      5-min Rain = 0
KDO1 040610Z 20003KT 28/17 A3002 RMK A01 T02780172  RH  052%=      5-min Rain = 0
KDO1 040611Z 20004KT 28/17 A3002 RMK A01 T02780170  RH  052%=      5-min Rain = 0
KDO1 040612Z 20004KT 28/17 A3002 RMK A01 T02790170  RH  051%=      5-min Rain = 0
KDO1 040613Z 21004KT 28/17 A3002 RMK A01 T02800169  RH  051%=      5-min Rain = 0
KDO1 040614Z 21004KT 28/17 A3002 RMK A01 T02800169  RH  051%=      5-min Rain = 0
KDO1 040615Z 21004KT 28/17 A3002 RMK A01 T02810168  RH  050%=      5-min Rain = 0
KDO1 040616Z 21003KT 28/17 A3002 RMK A01 T02810169  RH  050%=      5-min Rain = 0
KDO1 040617Z 21004KT 28/17 A3002 RMK A01 T02810169  RH  051%=      5-min Rain = 0
KDO1 040618Z 21004KT 28/17 A3002 RMK A01 T02810169  RH  051%=      5-min Rain = 0
KDO1 040619Z 21003KT 28/17 A3002 RMK A01 T02810169  RH  051%=      5-min Rain = 0
KDO1 040620Z 22003KT 28/17 A3003 RMK A01 T02800168  RH  051%=      5-min Rain = 0
KDO1 040621Z 22002KT 28/17 A3003 RMK A01 T02800168  RH  051%=      5-min Rain = 0
KDO1 040622Z 21002KT 28/17 A3003 RMK A01 T02790168  RH  051%=      5-min Rain = 0
KDO1 040623Z 21002KT 28/17 A3003 RMK A01 T02790168  RH  051%=      5-min Rain = 0
KDO1 040624Z 21002KT 28/17 A3003 RMK A01 T02780167  RH  051%=      5-min Rain = 0
KDO1 040625Z 20002KT 28/17 A3003 RMK A01 T02780167  RH  051%=      5-min Rain = 0
KDO1 040626Z 21000KT 28/17 A3003 RMK A01 T02780167  RH  051%=      5-min Rain = 0
KDO1 040627Z 01001KT 28/17 A3003 RMK A01 T02780167  RH  051%=      5-min Rain = 0
KDO1 040628Z 01002KT 28/17 A3004 RMK A01 T02780167  RH  051%=      5-min Rain = 0
KDO1 040629Z 01006KT 28/17 A3004 RMK A01 T02780167  RH  051%=      5-min Rain = 0
KDO1 040630Z 00009KT 28/17 A3004 RMK A01 T02780170  RH  052%=      5-min Rain = 0
KDO1 040631Z 35011KT 27/17 A3004 RMK A01 T02740171  RH  053%=      5-min Rain = 0
KDO1 040632Z 35008KT 27/17 A3004 RMK A01 T02680171  RH  055%=      5-min Rain = 0
KDO1 040633Z 35007KT 27/17 A3004 RMK A01 T02650171  RH  056%=      5-min Rain = 0
KDO1 040634Z 34010KT 26/17 A3004 RMK A01 T02640170  RH  056%=      5-min Rain = 0
KDO1 040635Z 34009KT 27/17 A3004 RMK A01 T02670169  RH  055%=      5-min Rain = 0
KDO1 040636Z 34008G13KT 27/17 A3004 RMK A01 T02710170  RH  054%=      5-min Rain = 0
KDO1 040637Z 36008KT 27/17 A3004 RMK A01 T02740169  RH  053%=      5-min Rain = 0
KDO1 040638Z 00010KT 28/17 A3004 RMK A01 T02760170  RH  052%=      5-min Rain = 0
KDO1 040639Z 35009KT 28/17 A3004 RMK A01 T02780168  RH  051%=      5-min Rain = 0
KDO1 040640Z 35007KT 28/17 A3004 RMK A01 T02800168  RH  051%=      5-min Rain = 0
KDO1 040641Z 01005KT 28/17 A3004 RMK A01 T02800169  RH  051%=      5-min Rain = 0
KDO1 040642Z 00007KT 28/17 A3004 RMK A01 T02800166  RH  050%=      5-min Rain = 0
KDO1 040643Z 01005G10KT 28/17 A3004 RMK A01 T02830165  RH  049%=      5-min Rain = 0
KDO1 040644Z 36007KT 29/17 A3004 RMK A01 T02850167  RH  049%=      5-min Rain = 0
KDO1 040645Z 35007KT 29/17 A3004 RMK A01 T02860165  RH  048%=      5-min Rain = 0
KDO1 040646Z 33006KT 29/16 A3004 RMK A01 T02880164  RH  047%=      5-min Rain = 0
KDO1 040647Z 00006G11KT 29/16 A3005 RMK A01 T02920164  RH  046%=      5-min Rain = 0
KDO1 040648Z 01007KT 29/17 A3005 RMK A01 T02940165  RH  046%=      5-min Rain = 0
KDO1 040649Z 02006KT 29/17 A3005 RMK A01 T02940165  RH  046%=      5-min Rain = 0
KDO1 040650Z 05004KT 29/17 A3005 RMK A01 T02940165  RH  046%=      5-min Rain = 0
KDO1 040651Z 03003KT 30/17 A3005 RMK A01 T02950165  RH  045%=      5-min Rain = 0
KDO1 040652Z 33004KT 30/17 A3005 RMK A01 T02950166  RH  046%=      5-min Rain = 0
KDO1 040653Z 28003KT 29/17 A3005 RMK A01 T02920166  RH  046%=      5-min Rain = 0
KDO1 040654Z 32005KT 29/16 A3005 RMK A01 T02910164  RH  046%=      5-min Rain = 0
KDO1 040655Z 33003KT 29/16 A3005 RMK A01 T02910163  RH  046%=      5-min Rain = 0
KDO1 040656Z 00005KT 29/16 A3005 RMK A01 T02890159  RH  045%=      5-min Rain = 0
KDO1 040657Z 01005KT 29/16 A3005 RMK A01 T02880159  RH  046%=      5-min Rain = 0
KDO1 040658Z 34006KT 29/16 A3005 RMK A01 T02890159  RH  045%=      5-min Rain = 0
KDO1 040659Z 34007KT 29/16 A3005 RMK A01 T02890155  RH  044%=      5-min Rain = 0
KDO1 040700Z 00007KT 29/15 A3005 RMK A01 T02870154  RH  044%=      5-min Rain = 0
KDO1 040701Z 00005KT 28/16 A3005 RMK A01 T02840155  RH  045%=      5-min Rain = 0
KDO1 040702Z 00006KT 28/16 A3005 RMK A01 T02820155  RH  046%=      5-min Rain = 0
KDO1 040703Z 01008KT 28/15 A3005 RMK A01 T02800154  RH  046%=      5-min Rain = 0
KDO1 040704Z 00009KT 28/15 A3005 RMK A01 T02790153  RH  046%=      5-min Rain = 0
KDO1 040705Z 00007KT 28/15 A3005 RMK A01 T02790152  RH  046%=      5-min Rain = 0
KDO1 040706Z 00006KT 28/15 A3005 RMK A01 T02780152  RH  046%=      5-min Rain = 0
KDO1 040707Z 35007KT 28/15 A3005 RMK A01 T02770152  RH  046%=      5-min Rain = 0
KDO1 040708Z 35006KT 28/15 A3005 RMK A01 T02760152  RH  047%=      5-min Rain = 0
KDO1 040709Z 36005KT 27/15 A3005 RMK A01 T02740151  RH  047%=      5-min Rain = 0
KDO1 040710Z 35007KT 27/15 A3005 RMK A01 T02730151  RH  047%=      5-min Rain = 0
KDO1 040711Z 36006KT 27/15 A3005 RMK A01 T02710151  RH  048%=      5-min Rain = 0
KDO1 040712Z 00006KT 27/15 A3005 RMK A01 T02700151  RH  048%=      5-min Rain = 0
KDO1 040713Z 00006KT 27/15 A3006 RMK A01 T02700151  RH  048%=      5-min Rain = 0
KDO1 040714Z 36006KT 27/15 A3006 RMK A01 T02690151  RH  048%=      5-min Rain = 0
KDO1 040715Z 36005KT 27/15 A3006 RMK A01 T02690151  RH  048%=      5-min Rain = 0
KDO1 040716Z 36005KT 27/15 A3006 RMK A01 T02680151  RH  049%=      5-min Rain = 0
KDO1 040717Z 00006KT 27/15 A3006 RMK A01 T02670150  RH  049%=      5-min Rain = 0
KDO1 040718Z 01006KT 27/15 A3006 RMK A01 T02670151  RH  049%=      5-min Rain = 0
KDO1 040719Z 01006KT 27/15 A3006 RMK A01 T02670150  RH  049%=      5-min Rain = 0
KDO1 040720Z 01007KT 27/15 A3006 RMK A01 T02660150  RH  049%=      5-min Rain = 0
KDO1 040721Z 00006KT 27/15 A3006 RMK A01 T02660150  RH  049%=      5-min Rain = 0
KDO1 040722Z 01006KT 27/15 A3006 RMK A01 T02660150  RH  049%=      5-min Rain = 0
KDO1 040723Z 00006KT 27/15 A3006 RMK A01 T02650150  RH  049%=      5-min Rain = 0
KDO1 040724Z 01006KT 26/15 A3006 RMK A01 T02640150  RH  049%=      5-min Rain = 0
KDO1 040725Z 00007KT 26/15 A3006 RMK A01 T02640150  RH  050%=      5-min Rain = 0
KDO1 040726Z 00007KT 26/15 A3006 RMK A01 T02640150  RH  049%=      5-min Rain = 0
KDO1 040727Z 36006KT 26/15 A3006 RMK A01 T02640149  RH  049%=      5-min Rain = 0
KDO1 040728Z 36006KT 26/15 A3006 RMK A01 T02640149  RH  049%=      5-min Rain = 0
KDO1 040729Z 01005KT 26/15 A3006 RMK A01 T02630150  RH  050%=      5-min Rain = 0
KDO1 040730Z 00006KT 26/15 A3006 RMK A01 T02620150  RH  050%=      5-min Rain = 0
KDO1 040731Z 01005KT 26/15 A3006 RMK A01 T02620149  RH  050%=      5-min Rain = 0
KDO1 040732Z 36005KT 26/15 A3006 RMK A01 T02620150  RH  050%=      5-min Rain = 0
KDO1 040733Z 00006KT 26/15 A3006 RMK A01 T02610149  RH  050%=      5-min Rain = 0
KDO1 040734Z 00006KT 26/15 A3006 RMK A01 T02610150  RH  050%=      5-min Rain = 0
KDO1 040735Z 00006KT 26/15 A3006 RMK A01 T02610150  RH  050%=      5-min Rain = 0
KDO1 040736Z 00006KT 26/15 A3006 RMK A01 T02600149  RH  050%=      5-min Rain = 0
KDO1 040737Z 36005KT 26/15 A3006 RMK A01 T02610149  RH  050%=      5-min Rain = 0
KDO1 040738Z 36005KT 26/15 A3006 RMK A01 T02610149  RH  050%=      5-min Rain = 0
KDO1 040739Z 36005KT 26/15 A3006 RMK A01 T02600149  RH  050%=      5-min Rain = 0
KDO1 040740Z 01005KT 26/15 A3006 RMK A01 T02610149  RH  050%=      5-min Rain = 0
KDO1 040741Z 00005KT 26/15 A3006 RMK A01 T02600149  RH  050%=      5-min Rain = 0
KDO1 040742Z 01005KT 26/15 A3006 RMK A01 T02610149  RH  050%=      5-min Rain = 0
KDO1 040743Z 02005KT 26/15 A3006 RMK A01 T02600149  RH  050%=      5-min Rain = 0
KDO1 040744Z 01005KT 26/15 A3006 RMK A01 T02610149  RH  050%=      5-min Rain = 0
KDO1 040745Z 01005KT 26/15 A3006 RMK A01 T02600149  RH  050%=      5-min Rain = 0
KDO1 040746Z 01005KT 26/15 A3006 RMK A01 T02610150  RH  050%=      5-min Rain = 0
KDO1 040747Z 01004KT 26/15 A3006 RMK A01 T02600149  RH  050%=      5-min Rain = 0
KDO1 040748Z 01005KT 26/15 A3006 RMK A01 T02600149  RH  051%=      5-min Rain = 0
KDO1 040749Z 01005KT 26/15 A3006 RMK A01 T02590149  RH  051%=      5-min Rain = 0
KDO1 040750Z 01006KT 26/15 A3006 RMK A01 T02590149  RH  051%=      5-min Rain = 0
KDO1 040751Z 01006KT 26/15 A3006 RMK A01 T02590149  RH  051%=      5-min Rain = 0
KDO1 040752Z 01006KT 26/15 A3006 RMK A01 T02590149  RH  051%=      5-min Rain = 0
KDO1 040753Z 03005KT 26/15 A3006 RMK A01 T02590149  RH  051%=      5-min Rain = 0
KDO1 040754Z 03007KT 26/15 A3005 RMK A01 T02590148  RH  050%=      5-min Rain = 0
KDO1 040755Z 04007KT 26/15 A3005 RMK A01 T02590148  RH  050%=      5-min Rain = 0
KDO1 040756Z 04007KT 26/15 A3005 RMK A01 T02600148  RH  050%=      5-min Rain = 0
KDO1 040757Z 03006KT 26/15 A3005 RMK A01 T02610148  RH  050%=      5-min Rain = 0
KDO1 040758Z 04006KT 26/15 A3005 RMK A01 T02620149  RH  050%=      5-min Rain = 0
KDO1 040759Z 03007KT 26/15 A3005 RMK A01 T02620149  RH  050%=      5-min Rain = 0
KDO1 040800Z 03006KT 26/15 A3005 RMK A01 T02620149  RH  050%=      5-min Rain = 0
KDO1 040801Z 03006KT 26/15 A3005 RMK A01 T02620149  RH  050%=      5-min Rain = 0
KDO1 040802Z 02005KT 26/15 A3005 RMK A01 T02620149  RH  050%=      5-min Rain = 0
KDO1 040803Z 02005KT 26/15 A3005 RMK A01 T02610149  RH  050%=      5-min Rain = 0
KDO1 040804Z 01005KT 26/15 A3005 RMK A01 T02610149  RH  050%=      5-min Rain = 0
KDO1 040805Z 02006KT 26/15 A3005 RMK A01 T02620150  RH  050%=      5-min Rain = 0
KDO1 040806Z 02005KT 26/15 A3005 RMK A01 T02610149  RH  050%=      5-min Rain = 0
KDO1 040807Z 02005KT 26/15 A3005 RMK A01 T02610149  RH  050%=      5-min Rain = 0
KDO1 040808Z 02006KT 26/15 A3005 RMK A01 T02610149  RH  050%=      5-min Rain = 0
KDO1 040809Z 02005KT 26/15 A3005 RMK A01 T02610150  RH  050%=      5-min Rain = 0
KDO1 040810Z 02004KT 26/15 A3005 RMK A01 T02610149  RH  050%=      5-min Rain = 0
KDO1 040811Z 02005KT 26/15 A3005 RMK A01 T02610150  RH  050%=      5-min Rain = 0
KDO1 040812Z 03006KT 26/15 A3005 RMK A01 T02600150  RH  050%=      5-min Rain = 0
KDO1 040813Z 03006KT 26/15 A3005 RMK A01 T02600150  RH  051%=      5-min Rain = 0
KDO1 040814Z 03005KT 26/15 A3005 RMK A01 T02600150  RH  051%=      5-min Rain = 0
KDO1 040815Z 03006KT 26/15 A3005 RMK A01 T02600150  RH  051%=      5-min Rain = 0
KDO1 040816Z 03005KT 26/15 A3005 RMK A01 T02600150  RH  051%=      5-min Rain = 0
KDO1 040817Z 03006KT 26/15 A3005 RMK A01 T02590150  RH  051%=      5-min Rain = 0
KDO1 040818Z 02005KT 26/15 A3005 RMK A01 T02600151  RH  051%=      5-min Rain = 0
KDO1 040819Z 02005KT 26/15 A3005 RMK A01 T02590151  RH  051%=      5-min Rain = 0
KDO1 040820Z 02005KT 26/15 A3005 RMK A01 T02590150  RH  051%=      5-min Rain = 0
KDO1 040821Z 03005KT 26/15 A3005 RMK A01 T02580150  RH  051%=      5-min Rain = 0
KDO1 040822Z 03005KT 26/15 A3005 RMK A01 T02580150  RH  051%=      5-min Rain = 0
KDO1 040823Z 03006KT 26/15 A3005 RMK A01 T02580150  RH  051%=      5-min Rain = 0
KDO1 040824Z 03005KT 26/15 A3005 RMK A01 T02580151  RH  052%=      5-min Rain = 0
KDO1 040825Z 03006KT 26/15 A3005 RMK A01 T02580150  RH  052%=      5-min Rain = 0
KDO1 040826Z 03006KT 26/15 A3005 RMK A01 T02570150  RH  052%=      5-min Rain = 0
KDO1 040827Z 02005KT 26/15 A3005 RMK A01 T02570151  RH  052%=      5-min Rain = 0
KDO1 040828Z 02005KT 26/15 A3005 RMK A01 T02570151  RH  052%=      5-min Rain = 0
KDO1 040829Z 02006KT 26/15 A3005 RMK A01 T02570151  RH  052%=      5-min Rain = 0
KDO1 040830Z 01006KT 26/15 A3005 RMK A01 T02580151  RH  052%=      5-min Rain = 0
KDO1 040831Z 01005KT 26/15 A3005 RMK A01 T02580151  RH  052%=      5-min Rain = 0
KDO1 040832Z 01005KT 26/15 A3005 RMK A01 T02580151  RH  052%=      5-min Rain = 0
KDO1 040833Z 36005KT 26/15 A3005 RMK A01 T02580151  RH  052%=      5-min Rain = 0
KDO1 040834Z 00005KT 26/15 A3005 RMK A01 T02570151  RH  052%=      5-min Rain = 0
KDO1 040835Z 01006KT 26/15 A3005 RMK A01 T02570152  RH  052%=      5-min Rain = 0
KDO1 040836Z 01006KT 26/15 A3005 RMK A01 T02560152  RH  052%=      5-min Rain = 0
KDO1 040837Z 02006KT 26/15 A3005 RMK A01 T02570151  RH  052%=      5-min Rain = 0
KDO1 040838Z 01005KT 26/15 A3005 RMK A01 T02570152  RH  052%=      5-min Rain = 0
KDO1 040839Z 01005KT 26/15 A3005 RMK A01 T02570152  RH  052%=      5-min Rain = 0
KDO1 040840Z 01006KT 26/15 A3005 RMK A01 T02580152  RH  052%=      5-min Rain = 0
KDO1 040841Z 02006KT 26/15 A3005 RMK A01 T02590152  RH  052%=      5-min Rain = 0
KDO1 040842Z 01006KT 26/15 A3005 RMK A01 T02590152  RH  052%=      5-min Rain = 0
KDO1 040843Z 01006KT 26/15 A3005 RMK A01 T02590152  RH  052%=      5-min Rain = 0
KDO1 040844Z 01006KT 26/15 A3005 RMK A01 T02590152  RH  052%=      5-min Rain = 0
KDO1 040845Z 00005KT 26/15 A3005 RMK A01 T02590152  RH  052%=      5-min Rain = 0
KDO1 040846Z 36007KT 26/15 A3005 RMK A01 T02590153  RH  052%=      5-min Rain = 0
KDO1 040847Z 35007KT 26/15 A3005 RMK A01 T02590152  RH  052%=      5-min Rain = 0
KDO1 040848Z 36006KT 26/15 A3005 RMK A01 T02580152  RH  052%=      5-min Rain = 0
KDO1 040849Z 36006KT 26/15 A3005 RMK A01 T02580152  RH  052%=      5-min Rain = 0
KDO1 040850Z 35006KT 26/15 A3005 RMK A01 T02580152  RH  052%=      5-min Rain = 0
KDO1 040851Z 35007KT 26/15 A3005 RMK A01 T02580152  RH  052%=      5-min Rain = 0
KDO1 040852Z 36007KT 26/15 A3005 RMK A01 T02580152  RH  052%=      5-min Rain = 0
KDO1 040853Z 35007KT 26/15 A3006 RMK A01 T02580151  RH  052%=      5-min Rain = 0
KDO1 040854Z 36007KT 26/15 A3006 RMK A01 T02580151  RH  052%=      5-min Rain = 0
KDO1 040855Z 36006KT 26/15 A3006 RMK A01 T02580150  RH  051%=      5-min Rain = 0
KDO1 040856Z 01005KT 26/15 A3006 RMK A01 T02580150  RH  051%=      5-min Rain = 0
KDO1 040857Z 00007KT 26/15 A3006 RMK A01 T02580149  RH  051%=      5-min Rain = 0
KDO1 040858Z 01007KT 26/15 A3005 RMK A01 T02580148  RH  051%=      5-min Rain = 0
KDO1 040859Z 01007KT 26/15 A3005 RMK A01 T02590146  RH  050%=      5-min Rain = 0
KDO1 040900Z 01006KT 26/15 A3005 RMK A01 T02610146  RH  049%=      5-min Rain = 0
KDO1 040901Z 01006KT 26/15 A3005 RMK A01 T02620146  RH  049%=      5-min Rain = 0
KDO1 040902Z 01006KT 26/15 A3005 RMK A01 T02620146  RH  049%=      5-min Rain = 0
KDO1 040903Z 01006KT 26/15 A3005 RMK A01 T02620146  RH  049%=      5-min Rain = 0
KDO1 040904Z 01007KT 26/15 A3005 RMK A01 T02630146  RH  048%=      5-min Rain = 0
KDO1 040905Z 01007KT 26/15 A3005 RMK A01 T02630145  RH  048%=      5-min Rain = 0
KDO1 040906Z 01006KT 26/15 A3005 RMK A01 T02630145  RH  048%=      5-min Rain = 0
KDO1 040907Z 00006KT 26/15 A3005 RMK A01 T02630145  RH  048%=      5-min Rain = 0
KDO1 040908Z 01006KT 26/15 A3005 RMK A01 T02630145  RH  048%=      5-min Rain = 0
KDO1 040909Z 01006KT 26/15 A3005 RMK A01 T02630145  RH  048%=      5-min Rain = 0
KDO1 040910Z 01005KT 26/15 A3005 RMK A01 T02630145  RH  048%=      5-min Rain = 0
KDO1 040911Z 01005KT 26/15 A3005 RMK A01 T02630145  RH  048%=      5-min Rain = 0
KDO1 040912Z 01005KT 26/14 A3005 RMK A01 T02630144  RH  048%=      5-min Rain = 0
KDO1 040913Z 01005KT 26/15 A3005 RMK A01 T02630145  RH  048%=      5-min Rain = 0
KDO1 040914Z 01005KT 26/15 A3005 RMK A01 T02630145  RH  048%=      5-min Rain = 0
KDO1 040915Z 01004KT 26/15 A3005 RMK A01 T02630145  RH  048%=      5-min Rain = 0
KDO1 040916Z 36004KT 26/15 A3005 RMK A01 T02620145  RH  048%=      5-min Rain = 0
KDO1 040917Z 01004KT 26/15 A3005 RMK A01 T02620145  RH  049%=      5-min Rain = 0
KDO1 040918Z 00003KT 26/15 A3005 RMK A01 T02620146  RH  049%=      5-min Rain = 0
KDO1 040919Z 01003KT 26/15 A3005 RMK A01 T02610145  RH  049%=      5-min Rain = 0
KDO1 040920Z 01003KT 26/15 A3004 RMK A01 T02610145  RH  049%=      5-min Rain = 0
KDO1 040921Z 01004KT 26/15 A3004 RMK A01 T02600145  RH  049%=      5-min Rain = 0
KDO1 040922Z 00003KT 26/15 A3004 RMK A01 T02600145  RH  049%=      5-min Rain = 0
KDO1 040923Z 36003KT 26/15 A3004 RMK A01 T02600145  RH  049%=      5-min Rain = 0
KDO1 040924Z 36003KT 26/15 A3004 RMK A01 T02590145  RH  049%=      5-min Rain = 0
KDO1 040925Z 36003KT 26/15 A3004 RMK A01 T02590146  RH  049%=      5-min Rain = 0
KDO1 040926Z 00003KT 26/15 A3004 RMK A01 T02590146  RH  050%=      5-min Rain = 0
KDO1 040927Z 00003KT 26/15 A3004 RMK A01 T02590145  RH  050%=      5-min Rain = 0
KDO1 040928Z 00002KT 26/15 A3004 RMK A01 T02580145  RH  050%=      5-min Rain = 0
KDO1 040929Z 01003KT 26/15 A3004 RMK A01 T02580145  RH  050%=      5-min Rain = 0
KDO1 040930Z 01003KT 26/15 A3004 RMK A01 T02580145  RH  050%=      5-min Rain = 0
KDO1 040931Z 01003KT 26/14 A3004 RMK A01 T02580144  RH  049%=      5-min Rain = 0
KDO1 040932Z 02003KT 26/14 A3004 RMK A01 T02580144  RH  049%=      5-min Rain = 0
KDO1 040933Z 02003KT 26/14 A3004 RMK A01 T02580144  RH  049%=      5-min Rain = 0
KDO1 040934Z 01002KT 26/15 A3004 RMK A01 T02580145  RH  049%=      5-min Rain = 0
KDO1 040935Z 01003KT 26/14 A3004 RMK A01 T02580144  RH  049%=      5-min Rain = 0
KDO1 040936Z 00003KT 26/14 A3004 RMK A01 T02580144  RH  049%=      5-min Rain = 0
KDO1 040937Z 36003KT 26/14 A3004 RMK A01 T02580144  RH  050%=      5-min Rain = 0
KDO1 040938Z 36004KT 26/15 A3004 RMK A01 T02580146  RH  050%=      5-min Rain = 0
KDO1 040939Z 00004KT 26/15 A3004 RMK A01 T02570145  RH  050%=      5-min Rain = 0
KDO1 040940Z 01004KT 26/14 A3004 RMK A01 T02570144  RH  050%=      5-min Rain = 0
KDO1 040941Z 00004KT 26/14 A3004 RMK A01 T02570143  RH  049%=      5-min Rain = 0
KDO1 040942Z 01004KT 26/14 A3004 RMK A01 T02570143  RH  049%=      5-min Rain = 0
KDO1 040943Z 02004KT 26/14 A3004 RMK A01 T02570142  RH  049%=      5-min Rain = 0
KDO1 040944Z 02004KT 26/14 A3004 RMK A01 T02580142  RH  049%=      5-min Rain = 0
KDO1 040945Z 01004KT 26/14 A3004 RMK A01 T02580141  RH  049%=      5-min Rain = 0
KDO1 040946Z 01003KT 26/14 A3004 RMK A01 T02580141  RH  048%=      5-min Rain = 0
KDO1 040947Z 02003KT 26/14 A3004 RMK A01 T02580141  RH  048%=      5-min Rain = 0
KDO1 040948Z 01003KT 26/14 A3004 RMK A01 T02590141  RH  048%=      5-min Rain = 0
KDO1 040949Z 01003KT 26/14 A3004 RMK A01 T02580142  RH  049%=      5-min Rain = 0
KDO1 040950Z 00003KT 26/14 A3004 RMK A01 T02590142  RH  049%=      5-min Rain = 0
KDO1 040951Z 36003KT 26/14 A3004 RMK A01 T02590143  RH  049%=      5-min Rain = 0
KDO1 040952Z 35002KT 26/15 A3004 RMK A01 T02580145  RH  050%=      5-min Rain = 0
KDO1 040953Z 33003KT 26/15 A3004 RMK A01 T02580148  RH  051%=      5-min Rain = 0
KDO1 040954Z 33003KT 26/15 A3004 RMK A01 T02560146  RH  051%=      5-min Rain = 0
KDO1 040955Z 34003KT 26/15 A3004 RMK A01 T02550146  RH  051%=      5-min Rain = 0
KDO1 040956Z 34002KT 26/15 A3004 RMK A01 T02550146  RH  051%=      5-min Rain = 0
KDO1 040957Z 34002KT 25/15 A3004 RMK A01 T02540146  RH  051%=      5-min Rain = 0
KDO1 040958Z 34001KT 25/15 A3004 RMK A01 T02540146  RH  051%=      5-min Rain = 0
KDO1 040959Z 00000KT 25/15 A3004 RMK A01 T02540146  RH  051%=      5-min Rain = 0
KDO1 041000Z 00000KT 25/15 A3004 RMK A01 T02530145  RH  051%=      5-min Rain = 0
KDO1 041001Z 00000KT 25/15 A3004 RMK A01 T02530145  RH  051%=      5-min Rain = 0
KDO1 041002Z 00000KT 25/15 A3004 RMK A01 T02530145  RH  051%=      5-min Rain = 0
KDO1 041003Z 00000KT 25/15 A3004 RMK A01 T02530146  RH  051%=      5-min Rain = 0
KDO1 041004Z 25000KT 25/15 A3004 RMK A01 T02530146  RH  051%=      5-min Rain = 0
KDO1 041005Z 24001KT 25/15 A3004 RMK A01 T02530146  RH  051%=      5-min Rain = 0
KDO1 041006Z 24001KT 25/15 A3004 RMK A01 T02530146  RH  052%=      5-min Rain = 0
KDO1 041007Z 25002KT 25/15 A3004 RMK A01 T02530147  RH  052%=      5-min Rain = 0
KDO1 041008Z 25002KT 25/15 A3004 RMK A01 T02520148  RH  053%=      5-min Rain = 0
KDO1 041009Z 27001KT 25/15 A3004 RMK A01 T02510150  RH  053%=      5-min Rain = 0
KDO1 041010Z 26002KT 25/15 A3004 RMK A01 T02500150  RH  054%=      5-min Rain = 0
KDO1 041011Z 25002KT 25/15 A3004 RMK A01 T02490149  RH  054%=      5-min Rain = 0
KDO1 041012Z 26001KT 25/15 A3003 RMK A01 T02490148  RH  054%=      5-min Rain = 0
KDO1 041013Z 26001KT 25/15 A3003 RMK A01 T02490149  RH  054%=      5-min Rain = 0
KDO1 041014Z 28001KT 25/15 A3003 RMK A01 T02490149  RH  054%=      5-min Rain = 0
KDO1 041015Z 29001KT 25/15 A3003 RMK A01 T02490149  RH  054%=      5-min Rain = 0
KDO1 041016Z 30002KT 25/15 A3003 RMK A01 T02490149  RH  054%=      5-min Rain = 0
KDO1 041017Z 31002KT 25/15 A3003 RMK A01 T02490147  RH  053%=      5-min Rain = 0
KDO1 041018Z 31002KT 25/15 A3003 RMK A01 T02490145  RH  052%=      5-min Rain = 0
KDO1 041019Z 31002KT 25/15 A3003 RMK A01 T02500146  RH  052%=      5-min Rain = 0
KDO1 041020Z 30002KT 25/15 A3003 RMK A01 T02500146  RH  053%=      5-min Rain = 0
KDO1 041021Z 30002KT 25/15 A3003 RMK A01 T02500147  RH  053%=      5-min Rain = 0
KDO1 041022Z 29002KT 25/15 A3003 RMK A01 T02500147  RH  053%=      5-min Rain = 0
KDO1 041023Z 28002KT 25/14 A3003 RMK A01 T02500144  RH  052%=      5-min Rain = 0
KDO1 041024Z 27002KT 25/14 A3003 RMK A01 T02500144  RH  052%=      5-min Rain = 0
KDO1 041025Z 27002KT 25/14 A3003 RMK A01 T02500143  RH  051%=      5-min Rain = 0
KDO1 041026Z 27002KT 25/14 A3003 RMK A01 T02500143  RH  051%=      5-min Rain = 0
KDO1 041027Z 27002KT 25/14 A3003 RMK A01 T02510143  RH  051%=      5-min Rain = 0
KDO1 041028Z 27002KT 25/14 A3003 RMK A01 T02510144  RH  051%=      5-min Rain = 0
KDO1 041029Z 28003KT 25/15 A3003 RMK A01 T02510145  RH  052%=      5-min Rain = 0
KDO1 041030Z 28003KT 25/15 A3003 RMK A01 T02510146  RH  052%=      5-min Rain = 0
KDO1 041031Z 29003KT 25/15 A3003 RMK A01 T02490147  RH  053%=      5-min Rain = 0
KDO1 041032Z 29003KT 25/15 A3003 RMK A01 T02490148  RH  054%=      5-min Rain = 0
KDO1 041033Z 29003KT 25/15 A3003 RMK A01 T02480149  RH  054%=      5-min Rain = 0
KDO1 041034Z 29004KT 25/15 A3003 RMK A01 T02470148  RH  054%=      5-min Rain = 0
KDO1 041035Z 30005KT 25/15 A3003 RMK A01 T02460145  RH  053%=      5-min Rain = 0
KDO1 041036Z 30005KT 25/14 A3003 RMK A01 T02460144  RH  053%=      5-min Rain = 0
KDO1 041037Z 30005KT 25/14 A3003 RMK A01 T02470144  RH  053%=      5-min Rain = 0
KDO1 041038Z 30005KT 25/14 A3003 RMK A01 T02480144  RH  052%=      5-min Rain = 0
KDO1 041039Z 30005KT 25/14 A3002 RMK A01 T02480143  RH  052%=      5-min Rain = 0
KDO1 041040Z 30004KT 25/14 A3002 RMK A01 T02490143  RH  052%=      5-min Rain = 0
KDO1 041041Z 29005KT 25/14 A3002 RMK A01 T02490144  RH  052%=      5-min Rain = 0
KDO1 041042Z 29005KT 25/14 A3002 RMK A01 T02490144  RH  052%=      5-min Rain = 0
KDO1 041043Z 29005KT 25/14 A3002 RMK A01 T02490144  RH  052%=      5-min Rain = 0
KDO1 041044Z 28004KT 25/14 A3002 RMK A01 T02490143  RH  052%=      5-min Rain = 0
KDO1 041045Z 27003KT 25/14 A3002 RMK A01 T02490144  RH  052%=      5-min Rain = 0
KDO1 041046Z 27003KT 25/14 A3002 RMK A01 T02490144  RH  052%=      5-min Rain = 0
KDO1 041047Z 28004KT 25/14 A3002 RMK A01 T02480144  RH  052%=      5-min Rain = 0
KDO1 041048Z 28004KT 25/15 A3002 RMK A01 T02480145  RH  053%=      5-min Rain = 0
KDO1 041049Z 29004KT 25/15 A3002 RMK A01 T02470145  RH  053%=      5-min Rain = 0
KDO1 041050Z 29004KT 25/14 A3002 RMK A01 T02470144  RH  053%=      5-min Rain = 0
KDO1 041051Z 28003KT 25/14 A3003 RMK A01 T02470144  RH  053%=      5-min Rain = 0
KDO1 041052Z 28003KT 25/14 A3003 RMK A01 T02470144  RH  053%=      5-min Rain = 0
KDO1 041053Z 29003KT 25/14 A3003 RMK A01 T02470143  RH  052%=      5-min Rain = 0
KDO1 041054Z 30004KT 25/14 A3003 RMK A01 T02470143  RH  052%=      5-min Rain = 0
KDO1 041055Z 30005KT 25/14 A3003 RMK A01 T02470144  RH  053%=      5-min Rain = 0
KDO1 041056Z 31005KT 25/14 A3003 RMK A01 T02470144  RH  053%=      5-min Rain = 0
KDO1 041057Z 31006KT 25/15 A3003 RMK A01 T02470145  RH  053%=      5-min Rain = 0
KDO1 041058Z 31007KT 25/15 A3003 RMK A01 T02470145  RH  053%=      5-min Rain = 0
KDO1 041059Z 31006KT 25/15 A3003 RMK A01 T02470145  RH  053%=      5-min Rain = 0
KDO1 041100Z 31005KT 25/14 A3003 RMK A01 T02470144  RH  053%=      5-min Rain = 0
KDO1 041101Z 31005KT 25/14 A3003 RMK A01 T02470144  RH  053%=      5-min Rain = 0
KDO1 041102Z 32004KT 25/14 A3003 RMK A01 T02470143  RH  053%=      5-min Rain = 0
KDO1 041103Z 33004KT 25/14 A3003 RMK A01 T02470143  RH  052%=      5-min Rain = 0
KDO1 041104Z 34004KT 25/14 A3003 RMK A01 T02470142  RH  052%=      5-min Rain = 0
KDO1 041105Z 35004KT 25/14 A3003 RMK A01 T02480142  RH  052%=      5-min Rain = 0
KDO1 041106Z 36005KT 25/14 A3003 RMK A01 T02480142  RH  052%=      5-min Rain = 0
KDO1 041107Z 01006KT 25/14 A3004 RMK A01 T02480143  RH  052%=      5-min Rain = 0
KDO1 041108Z 00006KT 25/14 A3004 RMK A01 T02480144  RH  053%=      5-min Rain = 0
KDO1 041109Z 34006KT 25/15 A3004 RMK A01 T02470145  RH  053%=      5-min Rain = 0
KDO1 041110Z 34005KT 25/14 A3004 RMK A01 T02460144  RH  053%=      5-min Rain = 0
KDO1 041111Z 34005KT 25/14 A3003 RMK A01 T02460143  RH  053%=      5-min Rain = 0
KDO1 041112Z 34004KT 25/14 A3003 RMK A01 T02460143  RH  053%=      5-min Rain = 0
KDO1 041113Z 35003KT 25/14 A3004 RMK A01 T02470143  RH  052%=      5-min Rain = 0
KDO1 041114Z 00004KT 25/14 A3004 RMK A01 T02470144  RH  053%=      5-min Rain = 0
KDO1 041115Z 35005KT 25/14 A3004 RMK A01 T02470144  RH  053%=      5-min Rain = 0
KDO1 041116Z 35006KT 25/15 A3004 RMK A01 T02470145  RH  053%=      5-min Rain = 0
KDO1 041117Z 35007KT 25/15 A3004 RMK A01 T02470145  RH  053%=      5-min Rain = 0
KDO1 041118Z 34007KT 25/15 A3004 RMK A01 T02460145  RH  053%=      5-min Rain = 0
KDO1 041119Z 35007KT 25/15 A3004 RMK A01 T02460145  RH  053%=      5-min Rain = 0
KDO1 041120Z 35008KT 25/15 A3004 RMK A01 T02460146  RH  054%=      5-min Rain = 0
KDO1 041121Z 35006KT 25/15 A3004 RMK A01 T02460146  RH  054%=      5-min Rain = 0
KDO1 041122Z 34006KT 25/15 A3004 RMK A01 T02460147  RH  054%=      5-min Rain = 0
KDO1 041123Z 35006KT 25/15 A3004 RMK A01 T02460147  RH  054%=      5-min Rain = 0
KDO1 041124Z 34005KT 25/15 A3004 RMK A01 T02460147  RH  054%=      5-min Rain = 0
KDO1 041125Z 35006KT 25/15 A3004 RMK A01 T02450148  RH  055%=      5-min Rain = 0
KDO1 041126Z 35005KT 25/15 A3004 RMK A01 T02450148  RH  055%=      5-min Rain = 0
KDO1 041127Z 35006KT 24/15 A3004 RMK A01 T02440148  RH  055%=      5-min Rain = 0
KDO1 041128Z 35007KT 24/15 A3004 RMK A01 T02440149  RH  055%=      5-min Rain = 0
KDO1 041129Z 35007KT 24/15 A3004 RMK A01 T02440149  RH  055%=      5-min Rain = 0
KDO1 041130Z 35006KT 24/15 A3004 RMK A01 T02440149  RH  055%=      5-min Rain = 0
KDO1 041131Z 35005KT 24/15 A3004 RMK A01 T02440149  RH  056%=      5-min Rain = 0
KDO1 041132Z 35006KT 24/15 A3004 RMK A01 T02440149  RH  056%=      5-min Rain = 0
KDO1 041133Z 35006KT 24/15 A3004 RMK A01 T02430149  RH  056%=      5-min Rain = 0
KDO1 041134Z 35005KT 24/15 A3004 RMK A01 T02430150  RH  056%=      5-min Rain = 0
KDO1 041135Z 35006KT 24/15 A3004 RMK A01 T02430150  RH  056%=      5-min Rain = 0
KDO1 041136Z 34006KT 24/15 A3004 RMK A01 T02430151  RH  056%=      5-min Rain = 0
KDO1 041137Z 34006KT 24/15 A3004 RMK A01 T02420150  RH  057%=      5-min Rain = 0
KDO1 041138Z 35006KT 24/15 A3004 RMK A01 T02420151  RH  057%=      5-min Rain = 0
KDO1 041139Z 34006KT 24/15 A3004 RMK A01 T02420151  RH  057%=      5-min Rain = 0
KDO1 041140Z 34006KT 24/15 A3004 RMK A01 T02420151  RH  057%=      5-min Rain = 0
KDO1 041141Z 34006KT 24/15 A3004 RMK A01 T02410152  RH  057%=      5-min Rain = 0
KDO1 041142Z 34006KT 24/15 A3004 RMK A01 T02410152  RH  057%=      5-min Rain = 0
KDO1 041143Z 34006KT 24/15 A3004 RMK A01 T02410152  RH  058%=      5-min Rain = 0
KDO1 041144Z 35006KT 24/15 A3004 RMK A01 T02400152  RH  058%=      5-min Rain = 0
KDO1 041145Z 34006KT 24/15 A3004 RMK A01 T02400152  RH  058%=      5-min Rain = 0
KDO1 041146Z 34006KT 24/15 A3004 RMK A01 T02400152  RH  058%=      5-min Rain = 0
KDO1 041147Z 34006KT 24/15 A3004 RMK A01 T02400152  RH  058%=      5-min Rain = 0
KDO1 041148Z 34005KT 24/15 A3003 RMK A01 T02400153  RH  058%=      5-min Rain = 0
KDO1 041149Z 34006KT 24/15 A3003 RMK A01 T02400153  RH  058%=      5-min Rain = 0
KDO1 041150Z 34007KT 24/15 A3003 RMK A01 T02400153  RH  058%=      5-min Rain = 0
KDO1 041151Z 34006KT 24/15 A3003 RMK A01 T02400152  RH  058%=      5-min Rain = 0
KDO1 041152Z 34007KT 24/15 A3003 RMK A01 T02410152  RH  058%=      5-min Rain = 0
KDO1 041153Z 34006KT 24/15 A3003 RMK A01 T02410152  RH  057%=      5-min Rain = 0
KDO1 041154Z 34007KT 24/15 A3003 RMK A01 T02420153  RH  057%=      5-min Rain = 0
KDO1 041155Z 34007KT 24/15 A3004 RMK A01 T02420153  RH  057%=      5-min Rain = 0
KDO1 041156Z 34007KT 24/15 A3004 RMK A01 T02430153  RH  057%=      5-min Rain = 0
KDO1 041157Z 35008KT 24/15 A3004 RMK A01 T02430153  RH  057%=      5-min Rain = 0
KDO1 041158Z 35007KT 24/15 A3004 RMK A01 T02440153  RH  057%=      5-min Rain = 0
KDO1 041159Z 35007KT 24/15 A3004 RMK A01 T02440153  RH  057%=      5-min Rain = 0
KDO1 041200Z 35007KT 24/15 A3004 RMK A01 T02430153  RH  057%=      5-min Rain = 0
KDO1 041201Z 36008KT 24/15 A3004 RMK A01 T02440154  RH  057%=      5-min Rain = 0
KDO1 041202Z 35008KT 24/15 A3004 RMK A01 T02440154  RH  057%=      5-min Rain = 0
KDO1 041203Z 36007KT 24/15 A3004 RMK A01 T02430154  RH  058%=      5-min Rain = 0
KDO1 041204Z 35008KT 24/15 A3004 RMK A01 T02430154  RH  058%=      5-min Rain = 0
KDO1 041205Z 35006KT 24/16 A3004 RMK A01 T02420155  RH  058%=      5-min Rain = 0
KDO1 041206Z 35008KT 24/16 A3004 RMK A01 T02420155  RH  058%=      5-min Rain = 0
KDO1 041207Z 34007KT 24/16 A3004 RMK A01 T02420156  RH  059%=      5-min Rain = 0
KDO1 041208Z 35007KT 24/16 A3004 RMK A01 T02420156  RH  059%=      5-min Rain = 0
KDO1 041209Z 35007KT 24/16 A3004 RMK A01 T02420156  RH  059%=      5-min Rain = 0
KDO1 041210Z 35008KT 24/16 A3004 RMK A01 T02410156  RH  059%=      5-min Rain = 0
KDO1 041211Z 35008KT 24/16 A3004 RMK A01 T02410156  RH  059%=      5-min Rain = 0
KDO1 041212Z 35008KT 24/16 A3004 RMK A01 T02410156  RH  059%=      5-min Rain = 0
KDO1 041213Z 36005KT 24/16 A3004 RMK A01 T02420156  RH  059%=      5-min Rain = 0
KDO1 041214Z 36007KT 24/16 A3004 RMK A01 T02420157  RH  059%=      5-min Rain = 0
KDO1 041215Z 01007KT 24/16 A3004 RMK A01 T02420157  RH  059%=      5-min Rain = 0
KDO1 041216Z 00007KT 24/16 A3004 RMK A01 T02420157  RH  059%=      5-min Rain = 0
KDO1 041217Z 01007G12KT 24/16 A3004 RMK A01 T02430158  RH  059%=      5-min Rain = 0
KDO1 041218Z 01007KT 24/16 A3004 RMK A01 T02430158  RH  059%=      5-min Rain = 0
KDO1 041219Z 01007KT 24/16 A3004 RMK A01 T02440158  RH  059%=      5-min Rain = 0
KDO1 041220Z 01009KT 24/16 A3004 RMK A01 T02440159  RH  059%=      5-min Rain = 0
KDO1 041221Z 01008KT 25/16 A3004 RMK A01 T02450159  RH  059%=      5-min Rain = 0
KDO1 041222Z 01009KT 25/16 A3004 RMK A01 T02450160  RH  059%=      5-min Rain = 0
KDO1 041223Z 01007KT 25/16 A3004 RMK A01 T02450160  RH  059%=      5-min Rain = 0
KDO1 041224Z 01008KT 25/16 A3004 RMK A01 T02460160  RH  059%=      5-min Rain = 0
KDO1 041225Z 02008KT 25/16 A3004 RMK A01 T02460160  RH  059%=      5-min Rain = 0
KDO1 041226Z 01008KT 25/16 A3004 RMK A01 T02470160  RH  059%=      5-min Rain = 0
KDO1 041227Z 00008KT 25/16 A3004 RMK A01 T02470160  RH  058%=      5-min Rain = 0
KDO1 041228Z 00006KT 25/16 A3004 RMK A01 T02480161  RH  058%=      5-min Rain = 0
KDO1 041229Z 00008KT 25/16 A3004 RMK A01 T02480161  RH  058%=      5-min Rain = 0
KDO1 041230Z 01008KT 25/16 A3004 RMK A01 T02490161  RH  058%=      5-min Rain = 0
KDO1 041231Z 36007KT 25/16 A3004 RMK A01 T02490161  RH  058%=      5-min Rain = 0
KDO1 041232Z 00006KT 25/16 A3004 RMK A01 T02500161  RH  058%=      5-min Rain = 0
KDO1 041233Z 36007KT 25/16 A3004 RMK A01 T02500161  RH  058%=      5-min Rain = 0
KDO1 041234Z 36008KT 25/16 A3004 RMK A01 T02510162  RH  058%=      5-min Rain = 0
KDO1 041235Z 00007KT 25/16 A3004 RMK A01 T02510162  RH  058%=      5-min Rain = 0
KDO1 041236Z 36008KT 25/16 A3004 RMK A01 T02510162  RH  058%=      5-min Rain = 0
KDO1 041237Z 36009KT 25/16 A3004 RMK A01 T02510162  RH  058%=      5-min Rain = 0
KDO1 041238Z 00010KT 25/16 A3004 RMK A01 T02510162  RH  058%=      5-min Rain = 0
KDO1 041239Z 00009KT 25/16 A3004 RMK A01 T02510162  RH  058%=      5-min Rain = 0
KDO1 041240Z 00009KT 25/16 A3004 RMK A01 T02510162  RH  058%=      5-min Rain = 0
KDO1 041241Z 00007KT 25/16 A3004 RMK A01 T02510163  RH  058%=      5-min Rain = 0
KDO1 041242Z 36008KT 25/16 A3004 RMK A01 T02510163  RH  058%=      5-min Rain = 0
KDO1 041243Z 00007G12KT 25/16 A3004 RMK A01 T02510163  RH  058%=      5-min Rain = 0
KDO1 041244Z 00006G11KT 25/16 A3004 RMK A01 T02510163  RH  058%=      5-min Rain = 0
KDO1 041245Z 36007KT 25/16 A3004 RMK A01 T02510163  RH  058%=      5-min Rain = 0
KDO1 041246Z 00008KT 25/16 A3004 RMK A01 T02510163  RH  058%=      5-min Rain = 0
KDO1 041247Z 00009KT 25/16 A3004 RMK A01 T02510163  RH  058%=      5-min Rain = 0
KDO1 041248Z 00007KT 25/16 A3004 RMK A01 T02520163  RH  058%=      5-min Rain = 0
KDO1 041249Z 36006KT 25/16 A3004 RMK A01 T02520164  RH  058%=      5-min Rain = 0
KDO1 041250Z 36008KT 25/16 A3004 RMK A01 T02530164  RH  058%=      5-min Rain = 0
KDO1 041251Z 36008KT 25/16 A3004 RMK A01 T02540164  RH  057%=      5-min Rain = 0
KDO1 041252Z 00008KT 26/17 A3004 RMK A01 T02550165  RH  057%=      5-min Rain = 0
KDO1 041253Z 36010KT 26/17 A3004 RMK A01 T02560165  RH  057%=      5-min Rain = 0
KDO1 041254Z 36008KT 26/17 A3004 RMK A01 T02560165  RH  057%=      5-min Rain = 0
KDO1 041255Z 00009KT 26/17 A3004 RMK A01 T02560166  RH  057%=      5-min Rain = 0
KDO1 041256Z 36010KT 26/17 A3004 RMK A01 T02570167  RH  058%=      5-min Rain = 0
KDO1 041257Z 35007KT 26/17 A3004 RMK A01 T02570168  RH  058%=      5-min Rain = 0
KDO1 041258Z 00008KT 26/17 A3004 RMK A01 T02580169  RH  058%=      5-min Rain = 0
KDO1 041259Z 00008KT 26/17 A3004 RMK A01 T02580169  RH  058%=      5-min Rain = 0
KDO1 041300Z 36007KT 26/17 A3004 RMK A01 T02580170  RH  058%=      5-min Rain = 0
KDO1 041301Z 01006KT 26/17 A3004 RMK A01 T02590171  RH  058%=      5-min Rain = 0
KDO1 041302Z 01004KT 26/17 A3004 RMK A01 T02600173  RH  059%=      5-min Rain = 0
KDO1 041303Z 01006KT 26/17 A3004 RMK A01 T02610174  RH  059%=      5-min Rain = 0
KDO1 041304Z 01007KT 26/17 A3004 RMK A01 T02610174  RH  059%=      5-min Rain = 0
KDO1 041305Z 01008G13KT 26/18 A3004 RMK A01 T02590175  RH  059%=      5-min Rain = 0
KDO1 041306Z 01009KT 26/18 A3004 RMK A01 T02580175  RH  060%=      5-min Rain = 0
KDO1 041307Z 01008KT 26/18 A3004 RMK A01 T02570175  RH  061%=      5-min Rain = 0
KDO1 041308Z 01007KT 26/18 A3004 RMK A01 T02570176  RH  061%=      5-min Rain = 0
KDO1 041309Z 01006KT 26/18 A3004 RMK A01 T02560177  RH  061%=      5-min Rain = 0
KDO1 041310Z 00007KT 26/18 A3004 RMK A01 T02560177  RH  062%=      5-min Rain = 0
KDO1 041311Z 01007KT 26/18 A3004 RMK A01 T02560177  RH  062%=      5-min Rain = 0
KDO1 041312Z 01008KT 26/18 A3004 RMK A01 T02560178  RH  062%=      5-min Rain = 0
KDO1 041313Z 02010KT 26/18 A3004 RMK A01 T02560178  RH  062%=      5-min Rain = 0
KDO1 041314Z 02007KT 26/18 A3004 RMK A01 T02550178  RH  062%=      5-min Rain = 0
KDO1 041315Z 01007KT 26/18 A3004 RMK A01 T02550179  RH  063%=      5-min Rain = 0
KDO1 041316Z 01005KT 26/18 A3004 RMK A01 T02550179  RH  063%=      5-min Rain = 0
KDO1 041317Z 00008KT 26/18 A3004 RMK A01 T02550179  RH  063%=      5-min Rain = 0
KDO1 041318Z 00008KT 26/18 A3004 RMK A01 T02550179  RH  063%=      5-min Rain = 0
KDO1 041319Z 01007KT 26/18 A3004 RMK A01 T02550180  RH  063%=      5-min Rain = 0
KDO1 041320Z 01007KT 26/18 A3004 RMK A01 T02550180  RH  063%=      5-min Rain = 0
KDO1 041321Z 01008KT 26/18 A3004 RMK A01 T02550180  RH  063%=      5-min Rain = 0
KDO1 041322Z 01008KT 26/18 A3004 RMK A01 T02550181  RH  063%=      5-min Rain = 0
KDO1 041323Z 01007KT 26/18 A3004 RMK A01 T02550181  RH  064%=      5-min Rain = 0
KDO1 041324Z 01006KT 26/18 A3004 RMK A01 T02550182  RH  064%=      5-min Rain = 0
KDO1 041325Z 00005KT 26/18 A3004 RMK A01 T02550182  RH  064%=      5-min Rain = 0
KDO1 041326Z 01006KT 26/18 A3004 RMK A01 T02550182  RH  064%=      5-min Rain = 0
KDO1 041327Z 01006KT 26/18 A3004 RMK A01 T02560182  RH  064%=      5-min Rain = 0
KDO1 041328Z 00008KT 26/18 A3004 RMK A01 T02560182  RH  064%=      5-min Rain = 0
KDO1 041329Z 00007KT 26/18 A3004 RMK A01 T02560183  RH  064%=      5-min Rain = 0
KDO1 041330Z 00008KT 26/18 A3004 RMK A01 T02570183  RH  064%=      5-min Rain = 0
KDO1 041331Z 00008KT 26/18 A3004 RMK A01 T02580183  RH  064%=      5-min Rain = 0
KDO1 041332Z 36007KT 26/18 A3004 RMK A01 T02580184  RH  064%=      5-min Rain = 0
KDO1 041333Z 01006KT 26/18 A3004 RMK A01 T02590184  RH  064%=      5-min Rain = 0
KDO1 041334Z 01009KT 26/18 A3004 RMK A01 T02590184  RH  063%=      5-min Rain = 0
KDO1 041335Z 00008KT 26/19 A3004 RMK A01 T02600185  RH  063%=      5-min Rain = 0
KDO1 041336Z 00008KT 26/19 A3004 RMK A01 T02600185  RH  063%=      5-min Rain = 0
KDO1 041337Z 35008KT 26/19 A3004 RMK A01 T02610185  RH  063%=      5-min Rain = 0
KDO1 041338Z 00010G15KT 26/19 A3004 RMK A01 T02620186  RH  063%=      5-min Rain = 0
KDO1 041339Z 01009KT 26/19 A3004 RMK A01 T02630186  RH  063%=      5-min Rain = 0
KDO1 041340Z 01008KT 26/19 A3004 RMK A01 T02640186  RH  062%=      5-min Rain = 0
KDO1 041341Z 36010KT 27/19 A3004 RMK A01 T02650187  RH  062%=      5-min Rain = 0
KDO1 041342Z 01007KT 27/19 A3004 RMK A01 T02660187  RH  062%=      5-min Rain = 0
KDO1 041343Z 01008KT 27/19 A3004 RMK A01 T02670187  RH  062%=      5-min Rain = 0
KDO1 041344Z 00007KT 27/19 A3004 RMK A01 T02670187  RH  061%=      5-min Rain = 0
KDO1 041345Z 00007G12KT 27/19 A3004 RMK A01 T02680188  RH  061%=      5-min Rain = 0
KDO1 041346Z 01009KT 27/19 A3004 RMK A01 T02690188  RH  061%=      5-min Rain = 0
KDO1 041347Z 00008KT 27/19 A3004 RMK A01 T02690188  RH  061%=      5-min Rain = 0
KDO1 041348Z 00007KT 27/19 A3004 RMK A01 T02690188  RH  061%=      5-min Rain = 0
KDO1 041349Z 01010KT 27/19 A3004 RMK A01 T02700189  RH  061%=      5-min Rain = 0
KDO1 041350Z 02009KT 27/19 A3004 RMK A01 T02700189  RH  061%=      5-min Rain = 0
KDO1 041351Z 02009KT 27/19 A3003 RMK A01 T02710190  RH  061%=      5-min Rain = 0
KDO1 041352Z 01010KT 27/19 A3004 RMK A01 T02730190  RH  061%=      5-min Rain = 0
KDO1 041353Z 02009KT 27/19 A3003 RMK A01 T02730190  RH  061%=      5-min Rain = 0
KDO1 041354Z 02010KT 27/19 A3003 RMK A01 T02720190  RH  061%=      5-min Rain = 0
KDO1 041355Z 02008KT 27/19 A3003 RMK A01 T02730190  RH  061%=      5-min Rain = 0
KDO1 041356Z 01007KT 27/19 A3003 RMK A01 T02730191  RH  061%=      5-min Rain = 0
KDO1 041357Z 03009KT 28/19 A3003 RMK A01 T02750192  RH  060%=      5-min Rain = 0
KDO1 041358Z 03009KT 28/19 A3003 RMK A01 T02760191  RH  060%=      5-min Rain = 0
KDO1 041359Z 02007KT 28/19 A3003 RMK A01 T02770192  RH  060%=      5-min Rain = 0
KDO1 041400Z 03007KT 28/19 A3003 RMK A01 T02770192  RH  060%=      5-min Rain = 0
KDO1 041401Z 04008KT 28/19 A3003 RMK A01 T02770192  RH  060%=      5-min Rain = 0
KDO1 041402Z 01008KT 28/19 A3003 RMK A01 T02780192  RH  060%=      5-min Rain = 0
KDO1 041403Z 01009KT 28/19 A3003 RMK A01 T02780192  RH  059%=      5-min Rain = 0
KDO1 041404Z 02009KT 28/19 A3003 RMK A01 T02780193  RH  060%=      5-min Rain = 0
KDO1 041405Z 03008KT 28/19 A3003 RMK A01 T02780193  RH  060%=      5-min Rain = 0
KDO1 041406Z 02009KT 28/19 A3003 RMK A01 T02780192  RH  060%=      5-min Rain = 0
KDO1 041407Z 02010KT 28/19 A3003 RMK A01 T02770193  RH  060%=      5-min Rain = 0
KDO1 041408Z 03008G13KT 28/19 A3003 RMK A01 T02770193  RH  060%=      5-min Rain = 0
KDO1 041409Z 02010KT 28/19 A3003 RMK A01 T02780192  RH  060%=      5-min Rain = 0
KDO1 041410Z 02007KT 28/19 A3003 RMK A01 T02790193  RH  060%=      5-min Rain = 0
KDO1 041411Z 02009KT 28/19 A3003 RMK A01 T02790193  RH  059%=      5-min Rain = 0
KDO1 041412Z 02008KT 28/19 A3003 RMK A01 T02800194  RH  060%=      5-min Rain = 0
KDO1 041413Z 03010KT 28/19 A3003 RMK A01 T02810194  RH  059%=      5-min Rain = 0
KDO1 041414Z 04010KT 28/19 A3003 RMK A01 T02810194  RH  059%=      5-min Rain = 0
KDO1 041415Z 03010KT 28/20 A3003 RMK A01 T02810195  RH  060%=      5-min Rain = 0
KDO1 041416Z 02009KT 28/20 A3003 RMK A01 T02810195  RH  060%=      5-min Rain = 0
KDO1 041417Z 02010KT 28/20 A3003 RMK A01 T02810195  RH  060%=      5-min Rain = 0
KDO1 041418Z 03009G14KT 28/20 A3003 RMK A01 T02810196  RH  060%=      5-min Rain = 0
KDO1 041419Z 04009KT 28/20 A3003 RMK A01 T02810195  RH  059%=      5-min Rain = 0
KDO1 041420Z 04009KT 28/20 A3003 RMK A01 T02820195  RH  059%=      5-min Rain = 0
KDO1 041421Z 02007KT 28/20 A3003 RMK A01 T02830196  RH  059%=      5-min Rain = 0
KDO1 041422Z 03009KT 28/20 A3003 RMK A01 T02840197  RH  059%=      5-min Rain = 0
KDO1 041423Z 02006KT 29/20 A3003 RMK A01 T02860197  RH  059%=      5-min Rain = 0
KDO1 041424Z 02009G14KT 29/20 A3003 RMK A01 T02860197  RH  059%=      5-min Rain = 0
KDO1 041425Z 03009KT 29/20 A3003 RMK A01 T02860197  RH  059%=      5-min Rain = 0
KDO1 041426Z 03010KT 29/20 A3003 RMK A01 T02850197  RH  059%=      5-min Rain = 0
KDO1 041427Z 03011KT 28/20 A3003 RMK A01 T02840197  RH  059%=      5-min Rain = 0
KDO1 041428Z 04009KT 28/20 A3003 RMK A01 T02830197  RH  060%=      5-min Rain = 0
KDO1 041429Z 03010KT 28/20 A3003 RMK A01 T02830197  RH  060%=      5-min Rain = 0
KDO1 041430Z 03007KT 28/20 A3003 RMK A01 T02830198  RH  060%=      5-min Rain = 0
KDO1 041431Z 05009KT 28/20 A3003 RMK A01 T02840199  RH  060%=      5-min Rain = 0
KDO1 041432Z 05009KT 29/20 A3003 RMK A01 T02860199  RH  059%=      5-min Rain = 0
KDO1 041433Z 04008KT 29/20 A3003 RMK A01 T02870199  RH  059%=      5-min Rain = 0
KDO1 041434Z 04011KT 29/20 A3003 RMK A01 T02880200  RH  059%=      5-min Rain = 0
KDO1 041435Z 04011KT 29/20 A3003 RMK A01 T02890199  RH  058%=      5-min Rain = 0
KDO1 041436Z 04011KT 29/20 A3003 RMK A01 T02880200  RH  059%=      5-min Rain = 0
KDO1 041437Z 04012KT 29/20 A3003 RMK A01 T02880199  RH  059%=      5-min Rain = 0
KDO1 041438Z 03011KT 29/20 A3003 RMK A01 T02870199  RH  059%=      5-min Rain = 0
KDO1 041439Z 03008KT 29/20 A3003 RMK A01 T02870199  RH  059%=      5-min Rain = 0
KDO1 041440Z 03006KT 29/20 A3003 RMK A01 T02880200  RH  059%=      5-min Rain = 0
KDO1 041441Z 02009KT 29/20 A3003 RMK A01 T02900200  RH  058%=      5-min Rain = 0
KDO1 041442Z 02011KT 29/20 A3003 RMK A01 T02910199  RH  057%=      5-min Rain = 0
KDO1 041443Z 02010KT 29/20 A3003 RMK A01 T02910199  RH  057%=      5-min Rain = 0
KDO1 041444Z 02007KT 29/20 A3003 RMK A01 T02920200  RH  058%=      5-min Rain = 0
KDO1 041445Z 04007KT 29/20 A3003 RMK A01 T02920201  RH  058%=      5-min Rain = 0
KDO1 041446Z 03009KT 29/20 A3004 RMK A01 T02920201  RH  058%=      5-min Rain = 0
KDO1 041447Z 03010KT 29/20 A3004 RMK A01 T02930200  RH  057%=      5-min Rain = 0
KDO1 041448Z 02008KT 29/20 A3003 RMK A01 T02920201  RH  058%=      5-min Rain = 0
KDO1 041449Z 02007KT 29/20 A3003 RMK A01 T02920201  RH  058%=      5-min Rain = 0
KDO1 041450Z 04010KT 29/20 A3003 RMK A01 T02920202  RH  058%=      5-min Rain = 0
KDO1 041451Z 05008KT 29/20 A3003 RMK A01 T02940200  RH  057%=      5-min Rain = 0
KDO1 041452Z 05008KT 29/20 A3003 RMK A01 T02940202  RH  057%=      5-min Rain = 0
KDO1 041453Z 03005KT 29/20 A3003 RMK A01 T02940202  RH  058%=      5-min Rain = 0
KDO1 041454Z 03009KT 30/20 A3003 RMK A01 T02960203  RH  057%=      5-min Rain = 0
KDO1 041455Z 04009KT 30/20 A3003 RMK A01 T02960202  RH  057%=      5-min Rain = 0
KDO1 041456Z 04009KT 30/20 A3003 RMK A01 T02960203  RH  057%=      5-min Rain = 0
KDO1 041457Z 03007G12KT 30/20 A3003 RMK A01 T02960203  RH  057%=      5-min Rain = 0
KDO1 041458Z 04008KT 30/20 A3003 RMK A01 T02970204  RH  057%=      5-min Rain = 0
KDO1 041459Z 04010KT 30/20 A3003 RMK A01 T02980204  RH  057%=      5-min Rain = 0
KDO1 041500Z 05009KT 30/20 A3003 RMK A01 T02980204  RH  057%=      5-min Rain = 0
KDO1 041501Z 06010KT 30/20 A3003 RMK A01 T02980204  RH  057%=      5-min Rain = 0
KDO1 041502Z 06005KT 30/20 A3003 RMK A01 T02980204  RH  057%=      5-min Rain = 0
KDO1 041503Z 05005KT 30/21 A3003 RMK A01 T02990206  RH  057%=      5-min Rain = 0
KDO1 041504Z 05005KT 30/21 A3003 RMK A01 T03020207  RH  057%=      5-min Rain = 0
KDO1 041505Z 02010KT 31/21 A3003 RMK A01 T03050206  RH  056%=      5-min Rain = 0
KDO1 041506Z 03009KT 30/21 A3003 RMK A01 T03040206  RH  056%=      5-min Rain = 0
KDO1 041507Z 04008KT 30/21 A3003 RMK A01 T03010206  RH  057%=      5-min Rain = 0
KDO1 041508Z 04006KT 30/21 A3003 RMK A01 T03000206  RH  057%=      5-min Rain = 0
KDO1 041509Z 06008KT 30/21 A3003 RMK A01 T03000207  RH  058%=      5-min Rain = 0
KDO1 041510Z 04008KT 30/21 A3003 RMK A01 T03020208  RH  057%=      5-min Rain = 0
KDO1 041511Z 04007KT 30/21 A3003 RMK A01 T03030208  RH  057%=      5-min Rain = 0
KDO1 041512Z 05009KT 30/21 A3003 RMK A01 T03040208  RH  056%=      5-min Rain = 0
KDO1 041513Z 05009KT 31/21 A3003 RMK A01 T03060206  RH  055%=      5-min Rain = 0
KDO1 041514Z 06008KT 30/21 A3003 RMK A01 T03040207  RH  056%=      5-min Rain = 0
KDO1 041515Z 05006G12KT 31/21 A3003 RMK A01 T03050208  RH  056%=      5-min Rain = 0
KDO1 041516Z 06011KT 31/21 A3003 RMK A01 T03080207  RH  055%=      5-min Rain = 0
KDO1 041517Z 06010KT 31/21 A3003 RMK A01 T03080207  RH  055%=      5-min Rain = 0
KDO1 041518Z 05008KT 31/21 A3003 RMK A01 T03080207  RH  055%=      5-min Rain = 0
KDO1 041519Z 04010KT 31/20 A3003 RMK A01 T03080204  RH  054%=      5-min Rain = 0
KDO1 041520Z 04010KT 31/20 A3003 RMK A01 T03070204  RH  054%=      5-min Rain = 0
KDO1 041521Z 03009KT 31/20 A3003 RMK A01 T03060203  RH  054%=      5-min Rain = 0
KDO1 041522Z 02009KT 31/20 A3003 RMK A01 T03050203  RH  054%=      5-min Rain = 0
KDO1 041523Z 04010KT 30/20 A3003 RMK A01 T03040203  RH  055%=      5-min Rain = 0
KDO1 041524Z 04010KT 31/20 A3003 RMK A01 T03050200  RH  054%=      5-min Rain = 0
KDO1 041525Z 05011KT 31/20 A3003 RMK A01 T03050200  RH  054%=      5-min Rain = 0
KDO1 041526Z 05010KT 30/20 A3003 RMK A01 T03030201  RH  054%=      5-min Rain = 0
KDO1 041527Z 04007KT 30/20 A3003 RMK A01 T03030202  RH  055%=      5-min Rain = 0
KDO1 041528Z 04008KT 30/20 A3003 RMK A01 T03030202  RH  055%=      5-min Rain = 0
KDO1 041529Z 05006KT 30/20 A3003 RMK A01 T03040203  RH  055%=      5-min Rain = 0
KDO1 041530Z 03009KT 31/20 A3003 RMK A01 T03050202  RH  054%=      5-min Rain = 0
KDO1 041531Z 04009KT 31/20 A3003 RMK A01 T03060200  RH  053%=      5-min Rain = 0
KDO1 041532Z 05009KT 31/20 A3003 RMK A01 T03060199  RH  053%=      5-min Rain = 0
KDO1 041533Z 06009KT 31/20 A3003 RMK A01 T03060197  RH  052%=      5-min Rain = 0
KDO1 041534Z 06007KT 31/20 A3003 RMK A01 T03060200  RH  053%=      5-min Rain = 0
KDO1 041535Z 05007KT 31/20 A3003 RMK A01 T03050199  RH  053%=      5-min Rain = 0
KDO1 041536Z 03008KT 31/20 A3003 RMK A01 T03050197  RH  052%=      5-min Rain = 0
KDO1 041537Z 03009KT 31/20 A3003 RMK A01 T03060197  RH  052%=      5-min Rain = 0
KDO1 041538Z 03009KT 31/20 A3003 RMK A01 T03060196  RH  052%=      5-min Rain = 0
KDO1 041539Z 03008KT 31/20 A3003 RMK A01 T03060196  RH  052%=      5-min Rain = 0
KDO1 041540Z 02008KT 31/20 A3003 RMK A01 T03060195  RH  052%=      5-min Rain = 0
KDO1 041541Z 04009KT 31/20 A3003 RMK A01 T03070197  RH  052%=      5-min Rain = 0
KDO1 041542Z 05007KT 31/20 A3003 RMK A01 T03060200  RH  053%=      5-min Rain = 0
KDO1 041543Z 06008KT 31/20 A3003 RMK A01 T03070200  RH  053%=      5-min Rain = 0
KDO1 041544Z 06009KT 31/20 A3003 RMK A01 T03080197  RH  052%=      5-min Rain = 0
KDO1 041545Z 06009KT 31/20 A3003 RMK A01 T03090197  RH  051%=      5-min Rain = 0
KDO1 041546Z 06010G15KT 31/20 A3003 RMK A01 T03090198  RH  052%=      5-min Rain = 0
KDO1 041547Z 07012KT 31/20 A3003 RMK A01 T03080196  RH  051%=      5-min Rain = 0
KDO1 041548Z 07010KT 31/20 A3003 RMK A01 T03070196  RH  052%=      5-min Rain = 0
KDO1 041549Z 06011KT 31/20 A3003 RMK A01 T03080196  RH  051%=      5-min Rain = 0
KDO1 041550Z 07008KT 31/20 A3003 RMK A01 T03080197  RH  052%=      5-min Rain = 0
KDO1 041551Z 05008KT 31/20 A3003 RMK A01 T03080199  RH  052%=      5-min Rain = 0
KDO1 041552Z 05008KT 31/20 A3003 RMK A01 T03090198  RH  052%=      5-min Rain = 0
KDO1 041553Z 04009KT 31/20 A3003 RMK A01 T03090199  RH  052%=      5-min Rain = 0
KDO1 041554Z 05009KT 31/20 A3003 RMK A01 T03110199  RH  052%=      5-min Rain = 0
KDO1 041555Z 04008KT 31/20 A3003 RMK A01 T03110200  RH  052%=      5-min Rain = 0
KDO1 041556Z 04010KT 31/20 A3003 RMK A01 T03100200  RH  052%=      5-min Rain = 0
KDO1 041557Z 04009KT 31/20 A3003 RMK A01 T03090200  RH  052%=      5-min Rain = 0
KDO1 041558Z 05010KT 31/20 A3003 RMK A01 T03090200  RH  052%=      5-min Rain = 0
KDO1 041559Z 06010KT 31/20 A3003 RMK A01 T03100198  RH  051%=      5-min Rain = 0
KDO1 041600Z 05009KT 31/20 A3003 RMK A01 T03110198  RH  051%=      5-min Rain = 0
KDO1 041601Z 05008KT 31/20 A3003 RMK A01 T03120197  RH  050%=      5-min Rain = 0
KDO1 041602Z 05009KT 31/20 A3003 RMK A01 T03130198  RH  051%=      5-min Rain = 0
KDO1 041603Z 04009KT 31/20 A3003 RMK A01 T03130199  RH  051%=      5-min Rain = 0
KDO1 041604Z 04009KT 31/20 A3003 RMK A01 T03120198  RH  051%=      5-min Rain = 0
KDO1 041605Z 04006KT 31/20 A3003 RMK A01 T03120197  RH  050%=      5-min Rain = 0
KDO1 041606Z 07006KT 31/20 A3004 RMK A01 T03120199  RH  051%=      5-min Rain = 0
KDO1 041607Z 08009KT 31/20 A3004 RMK A01 T03140200  RH  051%=      5-min Rain = 0
KDO1 041608Z 07009KT 32/20 A3004 RMK A01 T03160196  RH  049%=      5-min Rain = 0
KDO1 041609Z 06009KT 32/20 A3004 RMK A01 T03160197  RH  049%=      5-min Rain = 0
KDO1 041610Z 06008KT 32/20 A3004 RMK A01 T03160197  RH  049%=      5-min Rain = 0
KDO1 041611Z 06009KT 32/20 A3004 RMK A01 T03150197  RH  050%=      5-min Rain = 0
KDO1 041612Z 06009KT 32/20 A3004 RMK A01 T03150196  RH  049%=      5-min Rain = 0
KDO1 041613Z 05009KT 32/20 A3004 RMK A01 T03150196  RH  049%=      5-min Rain = 0
KDO1 041614Z 05007KT 32/20 A3004 RMK A01 T03150196  RH  049%=      5-min Rain = 0
KDO1 041615Z 04006KT 32/20 A3004 RMK A01 T03150197  RH  050%=      5-min Rain = 0
KDO1 041616Z 03007KT 32/20 A3004 RMK A01 T03160196  RH  049%=      5-min Rain = 0
KDO1 041617Z 05006KT 32/20 A3004 RMK A01 T03160197  RH  049%=      5-min Rain = 0
KDO1 041618Z 07009KT 32/20 A3004 RMK A01 T03190200  RH  049%=      5-min Rain = 0
KDO1 041619Z 07008KT 32/20 A3004 RMK A01 T03220200  RH  049%=      5-min Rain = 0
KDO1 041620Z 07007KT 32/20 A3004 RMK A01 T03230200  RH  049%=      5-min Rain = 0
KDO1 041621Z 08005KT 32/20 A3004 RMK A01 T03230201  RH  049%=      5-min Rain = 0
KDO1 041622Z 08007KT 32/20 A3004 RMK A01 T03220204  RH  050%=      5-min Rain = 0
KDO1 041623Z 07008KT 32/20 A3004 RMK A01 T03240203  RH  049%=      5-min Rain = 0
KDO1 041624Z 07007KT 33/20 A3004 RMK A01 T03270201  RH  047%=      5-min Rain = 0
KDO1 041625Z 08009KT 33/20 A3004 RMK A01 T03280195  RH  046%=      5-min Rain = 0
KDO1 041626Z 07007KT 33/19 A3004 RMK A01 T03270194  RH  045%=      5-min Rain = 0
KDO1 041627Z 07007KT 33/20 A3004 RMK A01 T03260195  RH  046%=      5-min Rain = 0
KDO1 041628Z 09009G15KT 33/19 A3004 RMK A01 T03270194  RH  045%=      5-min Rain = 0
KDO1 041629Z 09010KT 33/19 A3004 RMK A01 T03290191  RH  044%=      5-min Rain = 0
KDO1 041630Z 09009KT 33/20 A3004 RMK A01 T03300195  RH  045%=      5-min Rain = 0
KDO1 041631Z 10008KT 33/20 A3004 RMK A01 T03310195  RH  045%=      5-min Rain = 0
KDO1 041632Z 09008KT 33/20 A3004 RMK A01 T03320196  RH  045%=      5-min Rain = 0
KDO1 041633Z 06010G15KT 33/20 A3004 RMK A01 T03310197  RH  045%=      5-min Rain = 0
KDO1 041634Z 06008KT 33/19 A3004 RMK A01 T03310189  RH  043%=      5-min Rain = 0
KDO1 041635Z 07009KT 33/19 A3004 RMK A01 T03290192  RH  044%=      5-min Rain = 0
KDO1 041636Z 08007KT 33/19 A3004 RMK A01 T03290187  RH  043%=      5-min Rain = 0
KDO1 041637Z 10007KT 33/19 A3004 RMK A01 T03300187  RH  043%=      5-min Rain = 0
KDO1 041638Z 07006KT 33/19 A3004 RMK A01 T03310190  RH  043%=      5-min Rain = 0
KDO1 041639Z 08005KT 33/19 A3004 RMK A01 T03320190  RH  043%=      5-min Rain = 0
KDO1 041640Z 07006KT 33/19 A3004 RMK A01 T03300192  RH  044%=      5-min Rain = 0
KDO1 041641Z 07007KT 33/19 A3004 RMK A01 T03290194  RH  045%=      5-min Rain = 0
KDO1 041642Z 06006KT 33/19 A3004 RMK A01 T03300192  RH  044%=      5-min Rain = 0
KDO1 041643Z 09004KT 33/19 A3004 RMK A01 T03290192  RH  044%=      5-min Rain = 0
KDO1 041644Z 07006KT 33/19 A3004 RMK A01 T03300191  RH  044%=      5-min Rain = 0
KDO1 041645Z 08007KT 33/19 A3004 RMK A01 T03310193  RH  044%=      5-min Rain = 0
KDO1 041646Z 07006KT 33/19 A3004 RMK A01 T03330193  RH  044%=      5-min Rain = 0
KDO1 041647Z 07008KT 33/19 A3004 RMK A01 T03340191  RH  043%=      5-min Rain = 0
KDO1 041648Z 08009KT 33/19 A3004 RMK A01 T03330190  RH  043%=      5-min Rain = 0
KDO1 041649Z 08009G14KT 33/19 A3004 RMK A01 T03330187  RH  042%=      5-min Rain = 0
KDO1 041650Z 09012KT 33/19 A3004 RMK A01 T03340187  RH  042%=      5-min Rain = 0
KDO1 041651Z 08010KT 33/19 A3004 RMK A01 T03340187  RH  042%=      5-min Rain = 0
KDO1 041652Z 05009KT 33/19 A3004 RMK A01 T03340187  RH  042%=      5-min Rain = 0
KDO1 041653Z 07008KT 33/19 A3004 RMK A01 T03320186  RH  042%=      5-min Rain = 0
KDO1 041654Z 07007KT 33/19 A3004 RMK A01 T03320185  RH  042%=      5-min Rain = 0
KDO1 041655Z 05009KT 33/18 A3004 RMK A01 T03340184  RH  041%=      5-min Rain = 0
KDO1 041656Z 07007KT 34/19 A3004 RMK A01 T03350186  RH  041%=      5-min Rain = 0
KDO1 041657Z 06003KT 34/19 A3004 RMK A01 T03350187  RH  042%=      5-min Rain = 0
KDO1 041658Z 05003KT 34/18 A3004 RMK A01 T03360184  RH  041%=      5-min Rain = 0
KDO1 041659Z 07006KT 34/19 A3004 RMK A01 T03370185  RH  041%=      5-min Rain = 0
KDO1 041700Z 08007G12KT 34/19 A3004 RMK A01 T03390185  RH  040%=      5-min Rain = 0
KDO1 041701Z 09009KT 34/19 A3004 RMK A01 T03410188  RH  040%=      5-min Rain = 0
KDO1 041702Z 09009KT 35/19 A3004 RMK A01 T03470188  RH  039%=      5-min Rain = 0
KDO1 041703Z 10007KT 35/19 A3004 RMK A01 T03480185  RH  038%=      5-min Rain = 0
KDO1 041704Z 12007KT 35/19 A3004 RMK A01 T03450185  RH  039%=      5-min Rain = 0
KDO1 041705Z 07010KT 35/19 A3004 RMK A01 T03450186  RH  039%=      5-min Rain = 0
KDO1 041706Z 09011KT 34/19 A3004 RMK A01 T03440186  RH  039%=      5-min Rain = 0
KDO1 041707Z 07007KT 34/19 A3004 RMK A01 T03410188  RH  041%=      5-min Rain = 0
KDO1 041708Z 08008KT 34/19 A3004 RMK A01 T03420185  RH  040%=      5-min Rain = 0
KDO1 041709Z 08007KT 34/19 A3004 RMK A01 T03440185  RH  039%=      5-min Rain = 0
KDO1 041710Z 09004KT 34/19 A3004 RMK A01 T03430188  RH  040%=      5-min Rain = 0
KDO1 041711Z 06008KT 35/19 A3004 RMK A01 T03450191  RH  040%=      5-min Rain = 0
KDO1 041712Z 04010KT 35/19 A3004 RMK A01 T03460192  RH  040%=      5-min Rain = 0
KDO1 041713Z 06009KT 34/19 A3004 RMK A01 T03430192  RH  041%=      5-min Rain = 0
KDO1 041714Z 07010G18KT 34/19 A3004 RMK A01 T03420194  RH  042%=      5-min Rain = 0
KDO1 041715Z 06010G15KT 34/19 A3004 RMK A01 T03420192  RH  041%=      5-min Rain = 0
KDO1 041716Z 04008KT 34/19 A3004 RMK A01 T03410191  RH  041%=      5-min Rain = 0
KDO1 041717Z 05008KT 34/19 A3004 RMK A01 T03390192  RH  042%=      5-min Rain = 0
KDO1 041718Z 06014KT 34/19 A3004 RMK A01 T03390193  RH  042%=      5-min Rain = 0
KDO1 041719Z 06011KT 34/19 A3004 RMK A01 T03380193  RH  043%=      5-min Rain = 0
KDO1 041720Z 06012KT 34/19 A3004 RMK A01 T03350194  RH  043%=      5-min Rain = 0
KDO1 041721Z 06008KT 33/20 A3004 RMK A01 T03340195  RH  044%=      5-min Rain = 0
KDO1 041722Z 07010KT 34/20 A3004 RMK A01 T03350196  RH  044%=      5-min Rain = 0
KDO1 041723Z 07011KT 34/19 A3004 RMK A01 T03360194  RH  043%=      5-min Rain = 0
KDO1 041724Z 06010KT 33/20 A3004 RMK A01 T03340196  RH  044%=      5-min Rain = 0
KDO1 041725Z 05011KT 33/20 A3004 RMK A01 T03340195  RH  044%=      5-min Rain = 0
KDO1 041726Z 05010KT 33/20 A3004 RMK A01 T03340195  RH  044%=      5-min Rain = 0
KDO1 041727Z 04011KT 33/19 A3004 RMK A01 T03340194  RH  044%=      5-min Rain = 0
KDO1 041728Z 05011KT 33/19 A3004 RMK A01 T03330194  RH  044%=      5-min Rain = 0
KDO1 041729Z 05007KT 33/19 A3004 RMK A01 T03340194  RH  044%=      5-min Rain = 0
KDO1 041730Z 06010KT 34/19 A3004 RMK A01 T03350194  RH  043%=      5-min Rain = 0
KDO1 041731Z 06008KT 34/19 A3004 RMK A01 T03360193  RH  043%=      5-min Rain = 0
KDO1 041732Z 05007KT 34/19 A3004 RMK A01 T03360190  RH  042%=      5-min Rain = 0
KDO1 041733Z 04008KT 33/19 A3004 RMK A01 T03340192  RH  043%=      5-min Rain = 0
KDO1 041734Z 05008KT 33/19 A3004 RMK A01 T03340192  RH  043%=      5-min Rain = 0
KDO1 041735Z 08010KT 34/19 A3004 RMK A01 T03360192  RH  043%=      5-min Rain = 0
KDO1 041736Z 07010KT 34/19 A3004 RMK A01 T03360190  RH  042%=      5-min Rain = 0
KDO1 041737Z 05010KT 33/19 A3004 RMK A01 T03330190  RH  043%=      5-min Rain = 0
KDO1 041738Z 05008KT 33/19 A3004 RMK A01 T03300188  RH  043%=      5-min Rain = 0
KDO1 041739Z 05005KT 33/19 A3004 RMK A01 T03290190  RH  044%=      5-min Rain = 0
KDO1 041740Z 05008KT 33/19 A3004 RMK A01 T03290192  RH  045%=      5-min Rain = 0
KDO1 041741Z 07010KT 33/19 A3004 RMK A01 T03290194  RH  045%=      5-min Rain = 0
KDO1 041742Z 08010KT 33/20 A3004 RMK A01 T03290195  RH  045%=      5-min Rain = 0
KDO1 041743Z 06009KT 33/20 A3004 RMK A01 T03320196  RH  045%=      5-min Rain = 0
KDO1 041744Z 04006KT 33/20 A3004 RMK A01 T03330197  RH  045%=      5-min Rain = 0
KDO1 041745Z 04009KT 34/20 A3003 RMK A01 T03370198  RH  044%=      5-min Rain = 0
KDO1 041746Z 06010KT 34/20 A3003 RMK A01 T03380196  RH  043%=      5-min Rain = 0
KDO1 041747Z 09013KT 34/19 A3003 RMK A01 T03380194  RH  043%=      5-min Rain = 0
KDO1 041748Z 09009KT 34/19 A3003 RMK A01 T03390193  RH  042%=      5-min Rain = 0
KDO1 041749Z 06009KT 34/20 A3003 RMK A01 T03420195  RH  042%=      5-min Rain = 0
KDO1 041750Z 06011KT 35/19 A3003 RMK A01 T03450191  RH  040%=      5-min Rain = 0
KDO1 041751Z 06007KT 34/19 A3003 RMK A01 T03420191  RH  041%=      5-min Rain = 0
KDO1 041752Z 07009KT 34/19 A3003 RMK A01 T03410191  RH  041%=      5-min Rain = 0
KDO1 041753Z 08013KT 35/19 A3003 RMK A01 T03450194  RH  041%=      5-min Rain = 0
KDO1 041754Z 08008KT 35/19 A3003 RMK A01 T03500193  RH  040%=      5-min Rain = 0
KDO1 041755Z 09010KT 35/19 A3004 RMK A01 T03510192  RH  039%=      5-min Rain = 0
KDO1 041756Z 08010KT 35/19 A3004 RMK A01 T03460190  RH  040%=      5-min Rain = 0
KDO1 041757Z 07009KT 34/19 A3004 RMK A01 T03430190  RH  041%=      5-min Rain = 0
KDO1 041758Z 07008KT 34/19 A3004 RMK A01 T03430189  RH  040%=      5-min Rain = 0
KDO1 041759Z 06005KT 34/19 A3004 RMK A01 T03420191  RH  041%=      5-min Rain = 0
KDO1 041800Z 08009G14KT 34/19 A3004 RMK A01 T03420191  RH  041%=      5-min Rain = 0
KDO1 041801Z 08011KT 34/19 A3004 RMK A01 T03420194  RH  042%=      5-min Rain = 0
KDO1 041802Z 07008KT 34/19 A3004 RMK A01 T03400194  RH  042%=      5-min Rain = 0
KDO1 041803Z 07007G12KT 34/19 A3004 RMK A01 T03370194  RH  043%=      5-min Rain = 0
KDO1 041804Z 05011KT 34/19 A3004 RMK A01 T03360193  RH  043%=      5-min Rain = 0
KDO1 041805Z 05009KT 33/19 A3004 RMK A01 T03330191  RH  043%=      5-min Rain = 0
KDO1 041806Z 06005KT 33/19 A3004 RMK A01 T03310191  RH  044%=      5-min Rain = 0
KDO1 041807Z 09005KT 33/19 A3003 RMK A01 T03300193  RH  044%=      5-min Rain = 0
KDO1 041808Z 06006KT 33/19 A3003 RMK A01 T03320193  RH  044%=      5-min Rain = 0
KDO1 041809Z 05006KT 33/19 A3003 RMK A01 T03330192  RH  043%=      5-min Rain = 0
KDO1 041810Z 06005KT 33/19 A3003 RMK A01 T03320191  RH  043%=      5-min Rain = 0
KDO1 041811Z 07006KT 33/19 A3003 RMK A01 T03320193  RH  044%=      5-min Rain = 0
KDO1 041812Z 08008KT 34/19 A3003 RMK A01 T03360194  RH  043%=      5-min Rain = 0
KDO1 041813Z 06007KT 34/19 A3003 RMK A01 T03400192  RH  042%=      5-min Rain = 0
KDO1 041814Z 05007KT 34/19 A3003 RMK A01 T03430191  RH  041%=      5-min Rain = 0
KDO1 041815Z 06007KT 34/19 A3003 RMK A01 T03440192  RH  041%=      5-min Rain = 0
KDO1 041816Z 07011KT 35/20 A3003 RMK A01 T03490197  RH  041%=      5-min Rain = 0
KDO1 041817Z 05011KT 35/20 A3003 RMK A01 T03520196  RH  040%=      5-min Rain = 0
KDO1 041818Z 06007KT 35/20 A3003 RMK A01 T03470196  RH  041%=      5-min Rain = 0
KDO1 041819Z 06006KT 35/20 A3003 RMK A01 T03460197  RH  042%=      5-min Rain = 0
KDO1 041820Z 10008KT 35/20 A3003 RMK A01 T03470198  RH  042%=      5-min Rain = 0
KDO1 041821Z 10009KT 35/20 A3003 RMK A01 T03490197  RH  041%=      5-min Rain = 0
KDO1 041822Z 10009KT 35/20 A3003 RMK A01 T03500196  RH  040%=      5-min Rain = 0
KDO1 041823Z 09011KT 35/20 A3003 RMK A01 T03520197  RH  040%=      5-min Rain = 0
KDO1 041824Z 09009KT 35/20 A3003 RMK A01 T03520197  RH  040%=      5-min Rain = 0
KDO1 041825Z 07008KT 35/20 A3003 RMK A01 T03490198  RH  041%=      5-min Rain = 0
KDO1 041826Z 06008KT 35/20 A3003 RMK A01 T03470198  RH  042%=      5-min Rain = 0
KDO1 041827Z 05007KT 34/20 A3003 RMK A01 T03440197  RH  042%=      5-min Rain = 0
KDO1 041828Z 06006KT 34/20 A3003 RMK A01 T03430198  RH  043%=      5-min Rain = 0
KDO1 041829Z 06011G18KT 34/20 A3003 RMK A01 T03420198  RH  043%=      5-min Rain = 0
KDO1 041830Z 07011KT 34/20 A3003 RMK A01 T03420197  RH  043%=      5-min Rain = 0
KDO1 041831Z 08010KT 34/20 A3003 RMK A01 T03420197  RH  043%=      5-min Rain = 0
KDO1 041832Z 06007KT 34/20 A3003 RMK A01 T03420197  RH  043%=      5-min Rain = 0
KDO1 041833Z 02007KT 34/19 A3003 RMK A01 T03420191  RH  041%=      5-min Rain = 0
KDO1 041834Z 03008KT 34/19 A3003 RMK A01 T03380192  RH  042%=      5-min Rain = 0
KDO1 041835Z 04008KT 34/19 A3003 RMK A01 T03360194  RH  043%=      5-min Rain = 0
KDO1 041836Z 07007KT 34/20 A3003 RMK A01 T03360195  RH  043%=      5-min Rain = 0
KDO1 041837Z 06010KT 34/20 A3003 RMK A01 T03370195  RH  043%=      5-min Rain = 0
KDO1 041838Z 07009KT 34/20 A3003 RMK A01 T03360196  RH  044%=      5-min Rain = 0
KDO1 041839Z 05007KT 34/20 A3003 RMK A01 T03370198  RH  044%=      5-min Rain = 0
KDO1 041840Z 03005KT 34/20 A3003 RMK A01 T03400195  RH  043%=      5-min Rain = 0
KDO1 041841Z 04006KT 34/20 A3003 RMK A01 T03380196  RH  043%=      5-min Rain = 0
KDO1 041842Z 05007KT 34/20 A3003 RMK A01 T03370195  RH  043%=      5-min Rain = 0
KDO1 041843Z 05007KT 34/20 A3003 RMK A01 T03360196  RH  044%=      5-min Rain = 0
KDO1 041844Z 06008KT 34/20 A3003 RMK A01 T03390196  RH  043%=      5-min Rain = 0
KDO1 041845Z 06008KT 34/19 A3003 RMK A01 T03400194  RH  042%=      5-min Rain = 0
KDO1 041846Z 05008KT 34/19 A3003 RMK A01 T03390194  RH  043%=      5-min Rain = 0
KDO1 041847Z 04009KT 34/19 A3003 RMK A01 T03380193  RH  043%=      5-min Rain = 0
KDO1 041848Z 05011KT 34/19 A3003 RMK A01 T03380192  RH  042%=      5-min Rain = 0
KDO1 041849Z 07007KT 34/19 A3003 RMK A01 T03390191  RH  042%=      5-min Rain = 0
KDO1 041850Z 08007KT 34/19 A3003 RMK A01 T03410194  RH  042%=      5-min Rain = 0
KDO1 041851Z 09008KT 34/20 A3003 RMK A01 T03440197  RH  042%=      5-min Rain = 0
KDO1 041852Z 09009KT 34/20 A3002 RMK A01 T03440196  RH  042%=      5-min Rain = 0
KDO1 041853Z 07009KT 35/20 A3002 RMK A01 T03450196  RH  041%=      5-min Rain = 0
KDO1 041854Z 06010KT 35/20 A3003 RMK A01 T03460195  RH  041%=      5-min Rain = 0
KDO1 041855Z 09008KT 35/19 A3002 RMK A01 T03450194  RH  041%=      5-min Rain = 0
KDO1 041856Z 07009KT 35/19 A3002 RMK A01 T03450193  RH  041%=      5-min Rain = 0
KDO1 041857Z 05006KT 35/19 A3002 RMK A01 T03450194  RH  041%=      5-min Rain = 0
KDO1 041858Z 08009KT 35/20 A3002 RMK A01 T03450196  RH  042%=      5-min Rain = 0
KDO1 041859Z 09011KT 35/19 A3002 RMK A01 T03470194  RH  041%=      5-min Rain = 0
KDO1 041900Z 08010KT 35/19 A3002 RMK A01 T03460194  RH  041%=      5-min Rain = 0
KDO1 041901Z 09009KT 35/19 A3002 RMK A01 T03450192  RH  041%=      5-min Rain = 0
KDO1 041902Z 10008KT 34/19 A3002 RMK A01 T03420190  RH  041%=      5-min Rain = 0
KDO1 041903Z 13007KT 34/19 A3002 RMK A01 T03400190  RH  041%=      5-min Rain = 0
KDO1 041904Z 14005KT 34/19 A3002 RMK A01 T03400187  RH  041%=      5-min Rain = 0
KDO1 041905Z 12007KT 34/19 A3002 RMK A01 T03410189  RH  041%=      5-min Rain = 0
KDO1 041906Z 04009KT 34/19 A3002 RMK A01 T03440191  RH  041%=      5-min Rain = 0
KDO1 041907Z 05009KT 35/19 A3002 RMK A01 T03460186  RH  039%=      5-min Rain = 0
KDO1 041908Z 06008KT 34/19 A3002 RMK A01 T03440187  RH  040%=      5-min Rain = 0
KDO1 041909Z 07006KT 35/19 A3002 RMK A01 T03450186  RH  039%=      5-min Rain = 0
KDO1 041910Z 08007KT 35/19 A3002 RMK A01 T03470188  RH  039%=      5-min Rain = 0
KDO1 041911Z 11009KT 35/19 A3002 RMK A01 T03490190  RH  039%=      5-min Rain = 0
KDO1 041912Z 12010KT 35/19 A3002 RMK A01 T03500190  RH  039%=      5-min Rain = 0
KDO1 041913Z 11009KT 35/19 A3002 RMK A01 T03490191  RH  039%=      5-min Rain = 0
KDO1 041914Z 11008KT 35/19 A3002 RMK A01 T03490190  RH  039%=      5-min Rain = 0
KDO1 041915Z 10006KT 35/19 A3002 RMK A01 T03480188  RH  039%=      5-min Rain = 0
KDO1 041916Z 10004KT 35/19 A3002 RMK A01 T03450186  RH  039%=      5-min Rain = 0
KDO1 041917Z 07007KT 34/19 A3002 RMK A01 T03440186  RH  039%=      5-min Rain = 0
KDO1 041918Z 03003KT 35/19 A3002 RMK A01 T03450186  RH  039%=      5-min Rain = 0
KDO1 041919Z 33001KT 34/19 A3002 RMK A01 T03440185  RH  039%=      5-min Rain = 0
KDO1 041920Z 28000KT 34/19 A3001 RMK A01 T03420185  RH  039%=      5-min Rain = 0
KDO1 041921Z 09000KT 34/19 A3001 RMK A01 T03410186  RH  040%=      5-min Rain = 0
KDO1 041922Z 09004KT 34/19 A3001 RMK A01 T03430187  RH  040%=      5-min Rain = 0
KDO1 041923Z 09008KT 35/19 A3001 RMK A01 T03450185  RH  039%=      5-min Rain = 0
KDO1 041924Z 09007KT 35/18 A3001 RMK A01 T03450183  RH  038%=      5-min Rain = 0
KDO1 041925Z 08007KT 35/19 A3001 RMK A01 T03460185  RH  039%=      5-min Rain = 0
KDO1 041926Z 08004KT 35/19 A3001 RMK A01 T03450188  RH  039%=      5-min Rain = 0
KDO1 041927Z 07005KT 34/19 A3001 RMK A01 T03440188  RH  040%=      5-min Rain = 0
KDO1 041928Z 06006KT 34/19 A3001 RMK A01 T03420189  RH  041%=      5-min Rain = 0
KDO1 041929Z 09007G12KT 34/19 A3001 RMK A01 T03420192  RH  041%=      5-min Rain = 0
KDO1 041930Z 07009KT 34/19 A3001 RMK A01 T03430193  RH  041%=      5-min Rain = 0
KDO1 041931Z 07007KT 34/19 A3001 RMK A01 T03440193  RH  041%=      5-min Rain = 0
KDO1 041932Z 06008KT 35/19 A3001 RMK A01 T03460194  RH  041%=      5-min Rain = 0
KDO1 041933Z 06010KT 35/19 A3001 RMK A01 T03480193  RH  040%=      5-min Rain = 0
KDO1 041934Z 06010KT 35/19 A3001 RMK A01 T03450191  RH  040%=      5-min Rain = 0
KDO1 041935Z 08007KT 34/19 A3001 RMK A01 T03430192  RH  041%=      5-min Rain = 0
KDO1 041936Z 08007KT 34/19 A3001 RMK A01 T03420190  RH  041%=      5-min Rain = 0
KDO1 041937Z 08006KT 34/19 A3001 RMK A01 T03430191  RH  041%=      5-min Rain = 0
KDO1 041938Z 07005KT 34/19 A3001 RMK A01 T03440190  RH  040%=      5-min Rain = 0
KDO1 041939Z 08004KT 34/19 A30 RMK A01 T03440188  RH  040%=      5-min Rain = 0
KDO1 041940Z 10003KT 34/19 A30 RMK A01 T03430191  RH  041%=      5-min Rain = 0
KDO1 041941Z 11009KT 34/19 A30 RMK A01 T03430191  RH  041%=      5-min Rain = 0
KDO1 041942Z 12008KT 34/19 A30 RMK A01 T03440187  RH  039%=      5-min Rain = 0
KDO1 041943Z 12008KT 35/19 A30 RMK A01 T03450187  RH  039%=      5-min Rain = 0
KDO1 041944Z 09011KT 35/19 A30 RMK A01 T03460187  RH  039%=      5-min Rain = 0
KDO1 041945Z 09007KT 34/19 A30 RMK A01 T03440186  RH  039%=      5-min Rain = 0
KDO1 041946Z 10009KT 34/19 A30 RMK A01 T03430187  RH  040%=      5-min Rain = 0
KDO1 041947Z 11008KT 34/19 A30 RMK A01 T03430187  RH  040%=      5-min Rain = 0
KDO1 041948Z 10008KT 35/19 A30 RMK A01 T03450186  RH  039%=      5-min Rain = 0
KDO1 041949Z 12008KT 35/19 A30 RMK A01 T03470185  RH  039%=      5-min Rain = 0
KDO1 041950Z 13009KT 35/18 A2999 RMK A01 T03470184  RH  038%=      5-min Rain = 0
KDO1 041951Z 12009KT 35/18 A2999 RMK A01 T03470183  RH  038%=      5-min Rain = 0
KDO1 041952Z 12008KT 35/18 A2999 RMK A01 T03470184  RH  038%=      5-min Rain = 0
KDO1 041953Z 14004KT 35/18 A2999 RMK A01 T03470184  RH  038%=      5-min Rain = 0
KDO1 041954Z 15002KT 35/19 A2999 RMK A01 T03490186  RH  038%=      5-min Rain = 0
KDO1 041955Z 12005KT 35/19 A2999 RMK A01 T03520189  RH  038%=      5-min Rain = 0
KDO1 041956Z 10006KT 36/19 A2999 RMK A01 T03550190  RH  038%=      5-min Rain = 0
KDO1 041957Z 11007KT 36/19 A2999 RMK A01 T03580189  RH  037%=      5-min Rain = 0
KDO1 041958Z 11007KT 36/19 A2999 RMK A01 T03590191  RH  037%=      5-min Rain = 0
KDO1 041959Z 09007KT 36/19 A2999 RMK A01 T03620194  RH  038%=      5-min Rain = 0
KDO1 042000Z 10013KT 37/20 A2998 RMK A01 T03660197  RH  037%=      5-min Rain = 0
KDO1 042001Z 09009KT 36/20 A2998 RMK A01 T03630198  RH  038%=      5-min Rain = 0
KDO1 042002Z 09012KT 36/20 A2998 RMK A01 T03620199  RH  039%=      5-min Rain = 0
KDO1 042003Z 09012KT 36/20 A2998 RMK A01 T03610196  RH  038%=      5-min Rain = 0
KDO1 042004Z 09007KT 36/20 A2998 RMK A01 T03560197  RH  040%=      5-min Rain = 0
KDO1 042005Z 06009KT 36/20 A2998 RMK A01 T03560196  RH  039%=      5-min Rain = 0
KDO1 042006Z 06009KT 35/20 A2998 RMK A01 T03540196  RH  040%=      5-min Rain = 0
KDO1 042007Z 06008KT 35/20 A2998 RMK A01 T03500195  RH  040%=      5-min Rain = 0
KDO1 042008Z 06006KT 35/19 A2998 RMK A01 T03470194  RH  041%=      5-min Rain = 0
KDO1 042009Z 08006KT 35/20 A2998 RMK A01 T03450196  RH  042%=      5-min Rain = 0
KDO1 042010Z 12008KT 35/20 A2998 RMK A01 T03470196  RH  041%=      5-min Rain = 0
KDO1 042011Z 13005KT 35/19 A2999 RMK A01 T03470192  RH  040%=      5-min Rain = 0
KDO1 042012Z 11003KT 35/19 A2999 RMK A01 T03460194  RH  041%=      5-min Rain = 0
KDO1 042013Z 12003KT 35/19 A2999 RMK A01 T03470194  RH  041%=      5-min Rain = 0
KDO1 042014Z 09006KT 35/19 A2999 RMK A01 T03480194  RH  041%=      5-min Rain = 0
KDO1 042015Z 08007KT 35/20 A2999 RMK A01 T03490195  RH  041%=      5-min Rain = 0
KDO1 042016Z 08008KT 35/20 A2999 RMK A01 T03470195  RH  041%=      5-min Rain = 0
KDO1 042017Z 08008KT 35/19 A2999 RMK A01 T03450194  RH  041%=      5-min Rain = 0
KDO1 042018Z 04007KT 34/19 A30 RMK A01 T03430194  RH  042%=      5-min Rain = 0
KDO1 042019Z 02010G16KT 34/20 A30 RMK A01 T03420196  RH  042%=      5-min Rain = 0
KDO1 042020Z 02014KT 34/21 A30 RMK A01 T03380205  RH  046%=      5-min Rain = 0
KDO1 042021Z 01013G19KT 33/21 A30 RMK A01 T03250211  RH  051%=      5-min Rain = 0
KDO1 042022Z 01018G25KT 32/21 A30 RMK A01 T03150211  RH  054%=      5-min Rain = 0
KDO1 042023Z 01021G29KT 30/20 A30 RMK A01 T03040202  RH  054%=      5-min Rain = 0
KDO1 042024Z 02023G30KT 30/19 A30 RMK A01 T02950194  RH  054%=      5-min Rain = 0
KDO1 042025Z 01018G26KT 29/19 A30 RMK A01 T02900190  RH  055%=      5-min Rain = 0
KDO1 042026Z 02018G25KT 29/19 A30 RMK A01 T02890189  RH  055%=      5-min Rain = 0
KDO1 042027Z 02017G22KT 29/19 A30 RMK A01 T02900188  RH  054%=      5-min Rain = 0
KDO1 042028Z 02019G26KT 29/19 A30 RMK A01 T02920187  RH  053%=      5-min Rain = 0
KDO1 042029Z 03015KT 30/19 A30 RMK A01 T02960185  RH  051%=      5-min Rain = 0
KDO1 042030Z 03014G22KT 30/18 A30 RMK A01 T03000182  RH  049%=      5-min Rain = 0
KDO1 042031Z 03016G23KT 30/18 A30 RMK A01 T03020179  RH  048%=      5-min Rain = 0
KDO1 042032Z 03012KT 30/18 A2999 RMK A01 T03010175  RH  047%=      5-min Rain = 0
KDO1 042033Z 02013KT 30/17 A2999 RMK A01 T02970172  RH  047%=      5-min Rain = 0
KDO1 042034Z 03014KT 30/17 A2999 RMK A01 T02960168  RH  046%=      5-min Rain = 0
KDO1 042035Z 03014G19KT 30/16 A2999 RMK A01 T02960164  RH  045%=      5-min Rain = 0
KDO1 042036Z 03013G19KT 30/16 A2999 RMK A01 T02950160  RH  044%=      5-min Rain = 0
KDO1 042037Z 03014G22KT 29/16 A2999 RMK A01 T02940161  RH  044%=      5-min Rain = 0
KDO1 042038Z 03018G24KT 30/16 A2999 RMK A01 T02950161  RH  044%=      5-min Rain = 0
KDO1 042039Z 04016G22KT 30/17 A2999 RMK A01 T02950166  RH  046%=      5-min Rain = 0
KDO1 042040Z 05014KT 29/17 A2999 RMK A01 T02910170  RH  048%=      5-min Rain = 0
KDO1 042041Z 06013KT 29/17 A2999 RMK A01 T02870173  RH  050%=      5-min Rain = 0
KDO1 042042Z 04014G20KT 29/17 A2999 RMK A01 T02850172  RH  050%=      5-min Rain = 0
KDO1 042043Z 04014G20KT 29/17 A2998 RMK A01 T02860168  RH  049%=      5-min Rain = 0
KDO1 042044Z 05016G22KT 29/16 A2998 RMK A01 T02890164  RH  047%=      5-min Rain = 0
KDO1 042045Z 05015G21KT 29/16 A2998 RMK A01 T02900162  RH  046%=      5-min Rain = 0
KDO1 042046Z 05015KT 29/16 A2998 RMK A01 T02930164  RH  046%=      5-min Rain = 0
KDO1 042047Z 05014G19KT 30/16 A2998 RMK A01 T02960164  RH  045%=      5-min Rain = 0
KDO1 042048Z 06015G22KT 30/17 A2997 RMK A01 T02980172  RH  047%=      5-min Rain = 0
KDO1 042049Z 05016KT 30/18 A2998 RMK A01 T03000181  RH  049%=      5-min Rain = 0
KDO1 042050Z 05016KT 30/18 A2998 RMK A01 T03010183  RH  049%=      5-min Rain = 0
KDO1 042051Z 04013G19KT 30/18 A2998 RMK A01 T03010179  RH  048%=      5-min Rain = 0
KDO1 042052Z 04016KT 30/18 A2998 RMK A01 T02990177  RH  048%=      5-min Rain = 0
KDO1 042053Z 03011KT 30/18 A2998 RMK A01 T02970176  RH  048%=      5-min Rain = 0
KDO1 042054Z 02013G20KT 30/17 A2998 RMK A01 T02950173  RH  048%=      5-min Rain = 0
KDO1 042055Z 04014G19KT 29/17 A2998 RMK A01 T02920171  RH  048%=      5-min Rain = 0
KDO1 042056Z 03015G20KT 29/17 A2998 RMK A01 T02900172  RH  049%=      5-min Rain = 0
KDO1 042057Z 04015KT 29/17 A2998 RMK A01 T02880173  RH  050%=      5-min Rain = 0
KDO1 042058Z 04015G22KT 29/17 A2998 RMK A01 T02870174  RH  050%=      5-min Rain = 0
KDO1 042059Z 04014G21KT 29/17 A2998 RMK A01 T02870174  RH  050%=      5-min Rain = 0
KDO1 042100Z 04015KT 29/17 A2998 RMK A01 T02870173  RH  050%=      5-min Rain = 0
KDO1 042101Z 05016KT 29/17 A2998 RMK A01 T02860171  RH  050%=      5-min Rain = 0
KDO1 042102Z 05012KT 29/17 A2998 RMK A01 T02860168  RH  049%=      5-min Rain = 0
KDO1 042103Z 05012KT 29/17 A2998 RMK A01 T02860168  RH  049%=      5-min Rain = 0
KDO1 042104Z 05011G16KT 29/17 A2999 RMK A01 T02860168  RH  049%=      5-min Rain = 0
KDO1 042105Z 04012KT 29/17 A2999 RMK A01 T02860170  RH  049%=      5-min Rain = 0
KDO1 042106Z 05011KT 29/17 A2999 RMK A01 T02850171  RH  050%=      5-min Rain = 0
KDO1 042107Z 06010KT 28/17 A2999 RMK A01 T02840172  RH  050%=      5-min Rain = 0
KDO1 042108Z 08011KT 28/17 A2999 RMK A01 T02840174  RH  051%=      5-min Rain = 0
KDO1 042109Z 06016KT 28/17 A30 RMK A01 T02830174  RH  051%=      5-min Rain = 0
KDO1 042110Z 06013KT 28/17 A30 RMK A01 T02810174  RH  052%=      5-min Rain = 0
KDO1 042111Z 07013KT 28/17 A30 RMK A01 T02790174  RH  053%=      5-min Rain = 0
KDO1 042112Z 08012KT 28/17 A30 RMK A01 T02790174  RH  053%=      5-min Rain = 0
KDO1 042113Z 07013KT 28/17 A30 RMK A01 T02790174  RH  053%=      5-min Rain = 0
KDO1 042114Z 08015KT 28/18 A3001 RMK A01 T02800176  RH  053%=      5-min Rain = 0
KDO1 042115Z 08015KT 28/18 A3001 RMK A01 T02810184  RH  056%=      5-min Rain = 0
KDO1 042116Z 09014KT 28/19 A3001 RMK A01 T02800194  RH  059%=      5-min Rain = 0
KDO1 042117Z 08015KT 28/20 A3001 RMK A01 T02770200  RH  063%=      5-min Rain = 0
KDO1 042118Z 08015KT 28/20 A3001 RMK A01 T02750202  RH  064%=      5-min Rain = 0
KDO1 042119Z 09011KT 27/20 A3001 RMK A01 T02730202  RH  065%=      5-min Rain = 0
KDO1 042120Z 09015KT 27/20 A3001 RMK A01 T02730201  RH  065%=      5-min Rain = 0
KDO1 042121Z 10013KT 27/20 A3001 RMK A01 T02720200  RH  065%=      5-min Rain = 0
KDO1 042122Z 09017G22KT 27/20 A3001 RMK A01 T02710201  RH  065%=      5-min Rain = 0
KDO1 042123Z 10017G22KT 27/20 A3001 RMK A01 T02690202  RH  066%=      5-min Rain = 0
KDO1 042124Z 10016KT 27/20 A3001 RMK A01 T02670202  RH  068%=      5-min Rain = 0
KDO1 042125Z 10017KT 27/20 A3001 RMK A01 T02660202  RH  068%=      5-min Rain = 0
KDO1 042126Z 10015G20KT 27/20 A3001 RMK A01 T02650201  RH  068%=      5-min Rain = 0
KDO1 042127Z 10015KT 26/20 A3001 RMK A01 T02630200  RH  068%=      5-min Rain = 0
KDO1 042128Z 10011KT 26/20 A3001 RMK A01 T02610199  RH  069%=      5-min Rain = 0
KDO1 042129Z 09009KT 26/20 A3001 RMK A01 T02600199  RH  069%=      5-min Rain = 0
KDO1 042130Z 09008KT 26/20 A3001 RMK A01 T02600199  RH  069%=      5-min Rain = 0
KDO1 042131Z 09009KT 26/20 A3001 RMK A01 T02600198  RH  069%=      5-min Rain = 0
KDO1 042132Z 10009KT 26/20 A30 RMK A01 T02600198  RH  069%=      5-min Rain = 0
KDO1 042133Z 10007KT 26/20 A30 RMK A01 T02600198  RH  069%=      5-min Rain = 0
KDO1 042134Z 11008KT 26/20 A30 RMK A01 T02600199  RH  069%=      5-min Rain = 0
KDO1 042135Z 11009KT 26/20 A30 RMK A01 T02600198  RH  069%=      5-min Rain = 0
KDO1 042136Z 10007KT 26/20 A30 RMK A01 T02600197  RH  068%=      5-min Rain = 0
KDO1 042137Z 12009KT 26/20 A30 RMK A01 T02600197  RH  068%=      5-min Rain = 0
KDO1 042138Z 11011KT 26/20 A30 RMK A01 T02600195  RH  067%=      5-min Rain = 0
KDO1 042139Z 11009KT 26/20 A30 RMK A01 T02600195  RH  067%=      5-min Rain = 0
KDO1 042140Z 11011KT 26/20 A30 RMK A01 T02590195  RH  068%=      5-min Rain = 0
KDO1 042141Z 11012KT 26/20 A30 RMK A01 T02580196  RH  068%=      5-min Rain = 0
KDO1 042142Z 10010KT 26/20 A30 RMK A01 T02570197  RH  069%=      5-min Rain = 0
KDO1 042143Z 09009KT 26/20 A30 RMK A01 T02570198  RH  070%=      5-min Rain = 0
KDO1 042144Z 09008KT 26/20 A30 RMK A01 T02580200  RH  070%=      5-min Rain = 0
KDO1 042145Z 09010KT 26/20 A30 RMK A01 T02570201  RH  071%=      5-min Rain = 0
KDO1 042146Z 10011KT 26/20 A30 RMK A01 T02570203  RH  072%=      5-min Rain = 0
KDO1 042147Z 10007KT 26/20 A30 RMK A01 T02550204  RH  073%=      5-min Rain = 0
KDO1 042148Z 11006KT 25/20 A30 RMK A01 T02540204  RH  074%=      5-min Rain = 0
KDO1 042149Z 09004KT 25/21 A30 RMK A01 T02540205  RH  074%=      5-min Rain = 0
KDO1 042150Z 09004KT 25/21 A30 RMK A01 T02540205  RH  074%=      5-min Rain = 0
KDO1 042151Z 09004KT 25/21 A30 RMK A01 T02540205  RH  074%=      5-min Rain = 0
KDO1 042152Z 10005KT 25/21 A2999 RMK A01 T02540205  RH  074%=      5-min Rain = 0
KDO1 042153Z 10005KT 25/21 A2999 RMK A01 T02540205  RH  074%=      5-min Rain = 0
KDO1 042154Z 08005KT 25/21 A2999 RMK A01 T02540205  RH  074%=      5-min Rain = 0
KDO1 042155Z 09006KT 25/21 A2999 RMK A01 T02540205  RH  074%=      5-min Rain = 0
KDO1 042156Z 08005KT 26/21 A2999 RMK A01 T02550205  RH  074%=      5-min Rain = 0
KDO1 042157Z 08007KT 26/20 A2999 RMK A01 T02560204  RH  073%=      5-min Rain = 0
KDO1 042158Z 07007KT 26/20 A2999 RMK A01 T02560203  RH  072%=      5-min Rain = 0
KDO1 042159Z 09005KT 26/20 A2999 RMK A01 T02570202  RH  072%=      5-min Rain = 0
KDO1 042200Z 08006KT 26/20 A2999 RMK A01 T02580202  RH  072%=      5-min Rain = 0
KDO1 042201Z 08007KT 26/20 A2999 RMK A01 T02580202  RH  071%=      5-min Rain = 0
KDO1 042202Z 07005KT 26/20 A2999 RMK A01 T02590202  RH  071%=      5-min Rain = 0
KDO1 042203Z 07006KT 26/20 A2999 RMK A01 T02600202  RH  070%=      5-min Rain = 0
KDO1 042204Z 08005KT 26/20 A2999 RMK A01 T02610201  RH  070%=      5-min Rain = 0
KDO1 042205Z 07005KT 26/20 A2999 RMK A01 T02620202  RH  069%=      5-min Rain = 0
KDO1 042206Z 06005KT 26/20 A2999 RMK A01 T02620202  RH  069%=      5-min Rain = 0
KDO1 042207Z 07005KT 26/20 A2999 RMK A01 T02620201  RH  069%=      5-min Rain = 0
KDO1 042208Z 06005KT 26/20 A2999 RMK A01 T02620201  RH  069%=      5-min Rain = 0
KDO1 042209Z 06005KT 26/20 A2999 RMK A01 T02630202  RH  069%=      5-min Rain = 0
KDO1 042210Z 06005KT 26/20 A2999 RMK A01 T02630202  RH  069%=      5-min Rain = 0
KDO1 042211Z 05004KT 26/20 A2999 RMK A01 T02630202  RH  069%=      5-min Rain = 0
KDO1 042212Z 06005KT 26/20 A2998 RMK A01 T02640202  RH  069%=      5-min Rain = 0
KDO1 042213Z 07006KT 26/20 A2998 RMK A01 T02640202  RH  069%=      5-min Rain = 0
KDO1 042214Z 08006KT 27/20 A2998 RMK A01 T02650202  RH  068%=      5-min Rain = 0
KDO1 042215Z 08007KT 27/20 A2998 RMK A01 T02650201  RH  068%=      5-min Rain = 0
KDO1 042216Z 08006KT 27/20 A2998 RMK A01 T02650201  RH  068%=      5-min Rain = 0
KDO1 042217Z 09005KT 27/20 A2998 RMK A01 T02650202  RH  068%=      5-min Rain = 0
KDO1 042218Z 10004KT 27/20 A2998 RMK A01 T02650203  RH  068%=      5-min Rain = 0
KDO1 042219Z 10006KT 27/20 A2998 RMK A01 T02670202  RH  068%=      5-min Rain = 0
KDO1 042220Z 10005KT 27/20 A2998 RMK A01 T02670202  RH  068%=      5-min Rain = 0
KDO1 042221Z 11006KT 27/20 A2997 RMK A01 T02680202  RH  067%=      5-min Rain = 0
KDO1 042222Z 11006KT 27/20 A2997 RMK A01 T02680202  RH  067%=      5-min Rain = 0
KDO1 042223Z 11005KT 27/20 A2998 RMK A01 T02680202  RH  067%=      5-min Rain = 0
KDO1 042224Z 12005KT 27/20 A2998 RMK A01 T02690203  RH  067%=      5-min Rain = 0
KDO1 042225Z 13006KT 27/20 A2998 RMK A01 T02700203  RH  067%=      5-min Rain = 0
KDO1 042226Z 10006KT 27/20 A2998 RMK A01 T02700203  RH  067%=      5-min Rain = 0
KDO1 042227Z 10006KT 27/20 A2998 RMK A01 T02700203  RH  067%=      5-min Rain = 0
KDO1 042228Z 11007KT 27/20 A2998 RMK A01 T02700203  RH  067%=      5-min Rain = 0
KDO1 042229Z 10007KT 27/20 A2998 RMK A01 T02700201  RH  066%=      5-min Rain = 0
KDO1 042230Z 10006KT 27/20 A2998 RMK A01 T02700201  RH  066%=      5-min Rain = 0
KDO1 042231Z 09006KT 27/20 A2998 RMK A01 T02700201  RH  066%=      5-min Rain = 0
KDO1 042232Z 10008KT 27/20 A2998 RMK A01 T02700201  RH  066%=      5-min Rain = 0
KDO1 042233Z 10008KT 27/20 A2998 RMK A01 T02700200  RH  066%=      5-min Rain = 0
KDO1 042234Z 09008KT 27/20 A2998 RMK A01 T02700200  RH  066%=      5-min Rain = 0
KDO1 042235Z 08008KT 27/20 A2998 RMK A01 T02700198  RH  065%=      5-min Rain = 0
KDO1 042236Z 09007KT 27/20 A2998 RMK A01 T02700198  RH  065%=      5-min Rain = 0
KDO1 042237Z 09006KT 27/20 A2998 RMK A01 T02700199  RH  065%=      5-min Rain = 0
KDO1 042238Z 10007KT 27/20 A2998 RMK A01 T02700199  RH  065%=      5-min Rain = 0
KDO1 042239Z 09007KT 27/20 A2998 RMK A01 T02700198  RH  065%=      5-min Rain = 0
KDO1 042240Z 09008KT 27/20 A2998 RMK A01 T02700196  RH  064%=      5-min Rain = 0
KDO1 042241Z 10005KT 27/20 A2998 RMK A01 T02700196  RH  064%=      5-min Rain = 0
KDO1 042242Z 07005KT 27/20 A2998 RMK A01 T02710197  RH  064%=      5-min Rain = 0
KDO1 042243Z 08006KT 27/20 A2998 RMK A01 T02710198  RH  064%=      5-min Rain = 0
KDO1 042244Z 07007KT 27/20 A2997 RMK A01 T02710198  RH  064%=      5-min Rain = 0
KDO1 042245Z 05005KT 27/20 A2997 RMK A01 T02720199  RH  064%=      5-min Rain = 0
KDO1 042246Z 05005KT 27/20 A2997 RMK A01 T02710200  RH  065%=      5-min Rain = 0
KDO1 042247Z 06005KT 27/20 A2997 RMK A01 T02720201  RH  065%=      5-min Rain = 0
KDO1 042248Z 06005KT 27/20 A2997 RMK A01 T02720200  RH  065%=      5-min Rain = 0
KDO1 042249Z 07005KT 27/20 A2997 RMK A01 T02720200  RH  065%=      5-min Rain = 0
KDO1 042250Z 06005KT 27/20 A2997 RMK A01 T02720201  RH  065%=      5-min Rain = 0
KDO1 042251Z 06006KT 27/20 A2997 RMK A01 T02720200  RH  065%=      5-min Rain = 0
KDO1 042252Z 06005KT 27/20 A2997 RMK A01 T02720200  RH  065%=      5-min Rain = 0
KDO1 042253Z 07006KT 27/20 A2997 RMK A01 T02720199  RH  065%=      5-min Rain = 0
KDO1 042254Z 07005KT 27/20 A2997 RMK A01 T02720200  RH  065%=      5-min Rain = 0
KDO1 042255Z 06004KT 27/20 A2997 RMK A01 T02730200  RH  065%=      5-min Rain = 0
KDO1 042256Z 06004KT 27/20 A2997 RMK A01 T02740201  RH  065%=      5-min Rain = 0
KDO1 042257Z 07002KT 27/20 A2997 RMK A01 T02740201  RH  065%=      5-min Rain = 0
KDO1 042258Z 07002KT 27/20 A2997 RMK A01 T02740200  RH  064%=      5-min Rain = 0
KDO1 042259Z 12000KT 27/20 A2998 RMK A01 T02740200  RH  064%=      5-min Rain = 0
KDO1 042300Z 12002KT 28/20 A2998 RMK A01 T02750201  RH  064%=      5-min Rain = 0
KDO1 042301Z 15002KT 28/20 A2998 RMK A01 T02760201  RH  064%=      5-min Rain = 0
KDO1 042302Z 18002KT 28/20 A2998 RMK A01 T02760202  RH  064%=      5-min Rain = 0
KDO1 042303Z 19003KT 28/20 A2998 RMK A01 T02780201  RH  063%=      5-min Rain = 0
KDO1 042304Z 19005KT 28/20 A2998 RMK A01 T02780201  RH  063%=      5-min Rain = 0
KDO1 042305Z 20005KT 28/20 A2998 RMK A01 T02790201  RH  062%=      5-min Rain = 0
KDO1 042306Z 20006KT 28/20 A2998 RMK A01 T02800200  RH  062%=      5-min Rain = 0
KDO1 042307Z 21008KT 28/20 A2998 RMK A01 T02810200  RH  061%=      5-min Rain = 0
KDO1 042308Z 21009KT 28/20 A2998 RMK A01 T02810199  RH  061%=      5-min Rain = 0
KDO1 042309Z 22010KT 28/20 A2998 RMK A01 T02820197  RH  060%=      5-min Rain = 0
KDO1 042310Z 22009KT 28/20 A2998 RMK A01 T02810196  RH  060%=      5-min Rain = 0
KDO1 042311Z 22011KT 28/20 A2998 RMK A01 T02810196  RH  060%=      5-min Rain = 0
KDO1 042312Z 21009KT 28/19 A2998 RMK A01 T02800194  RH  060%=      5-min Rain = 0
KDO1 042313Z 21011G16KT 28/19 A2998 RMK A01 T02790192  RH  059%=      5-min Rain = 0
KDO1 042314Z 19011KT 28/19 A2999 RMK A01 T02800191  RH  059%=      5-min Rain = 0
KDO1 042315Z 17008KT 28/19 A2999 RMK A01 T02810192  RH  059%=      5-min Rain = 0
KDO1 042316Z 15005KT 28/19 A2999 RMK A01 T02810192  RH  058%=      5-min Rain = 0
KDO1 042317Z 16006KT 28/19 A2999 RMK A01 T02820190  RH  058%=      5-min Rain = 0
KDO1 042318Z 15010KT 28/19 A2998 RMK A01 T02830190  RH  057%=      5-min Rain = 0
KDO1 042319Z 13011KT 28/19 A2998 RMK A01 T02840189  RH  056%=      5-min Rain = 0
KDO1 042320Z 13008KT 29/19 A2998 RMK A01 T02850190  RH  056%=      5-min Rain = 0
KDO1 042321Z 15007KT 28/19 A2998 RMK A01 T02840190  RH  057%=      5-min Rain = 0
KDO1 042322Z 16008KT 29/19 A2998 RMK A01 T02850191  RH  057%=      5-min Rain = 0
KDO1 042323Z 16009KT 29/19 A2999 RMK A01 T02850190  RH  056%=      5-min Rain = 0
KDO1 042324Z 17008KT 29/19 A2999 RMK A01 T02860191  RH  056%=      5-min Rain = 0
KDO1 042325Z 16010KT 29/19 A2999 RMK A01 T02860191  RH  056%=      5-min Rain = 0
KDO1 042326Z 16009KT 29/19 A2999 RMK A01 T02860190  RH  056%=      5-min Rain = 0
KDO1 042327Z 16008KT 29/19 A2999 RMK A01 T02860192  RH  057%=      5-min Rain = 0
KDO1 042328Z 15009KT 29/19 A2999 RMK A01 T02860192  RH  057%=      5-min Rain = 0
KDO1 042329Z 15010KT 29/19 A2999 RMK A01 T02850192  RH  057%=      5-min Rain = 0
KDO1 042330Z 16008KT 29/19 A2999 RMK A01 T02850192  RH  057%=      5-min Rain = 0
KDO1 042331Z 17014G22KT 29/19 A2999 RMK A01 T02860192  RH  057%=      5-min Rain = 0
KDO1 042332Z 18020KT 28/20 A2999 RMK A01 T02840201  RH  061%=      5-min Rain = 0
KDO1 042333Z 17018KT 28/21 A2999 RMK A01 T02750207  RH  067%=      5-min Rain = 0
KDO1 042334Z 17015KT 27/21 A2999 RMK A01 T02650208  RH  071%=      5-min Rain = 0
KDO1 042335Z 17012KT 26/21 A2999 RMK A01 T02600210  RH  074%=      5-min Rain = 0
KDO1 042336Z 17011KT 26/21 A2998 RMK A01 T02590210  RH  074%=      5-min Rain = 0
KDO1 042337Z 17009KT 26/21 A2998 RMK A01 T02590209  RH  074%=      5-min Rain = 0
KDO1 042338Z 17010G16KT 26/21 A2998 RMK A01 T02590210  RH  074%=      5-min Rain = 0
KDO1 042339Z 17018KT 26/21 A2998 RMK A01 T02610211  RH  074%=      5-min Rain = 0
KDO1 042340Z 18015KT 26/21 A2998 RMK A01 T02580212  RH  076%=      5-min Rain = 0
KDO1 042341Z 18014KT 26/21 A2998 RMK A01 T02560212  RH  077%=      5-min Rain = 0
KDO1 042342Z 18013KT 26/21 A2998 RMK A01 T02550212  RH  077%=      5-min Rain = 0
KDO1 042343Z 18011KT 25/21 A2997 RMK A01 T02540214  RH  078%=      5-min Rain = 0
KDO1 042344Z 18012KT 25/21 A2997 RMK A01 T02540213  RH  078%=      5-min Rain = 0
KDO1 042345Z 18009KT 25/21 A2997 RMK A01 T02540214  RH  079%=      5-min Rain = 0
KDO1 042346Z 18010KT 25/22 A2997 RMK A01 T02540215  RH  079%=      5-min Rain = 0
KDO1 042347Z 18011KT 26/22 A2997 RMK A01 T02550215  RH  079%=      5-min Rain = 0
KDO1 042348Z 18011KT 26/21 A2997 RMK A01 T02550214  RH  078%=      5-min Rain = 0
KDO1 042349Z 17010KT 26/22 A2997 RMK A01 T02560215  RH  078%=      5-min Rain = 0
KDO1 042350Z 18010KT 26/21 A2997 RMK A01 T02580213  RH  076%=      5-min Rain = 0
KDO1 042351Z 19011KT 26/21 A2997 RMK A01 T02580213  RH  076%=      5-min Rain = 0
KDO1 042352Z 19010KT 26/21 A2997 RMK A01 T02580210  RH  075%=      5-min Rain = 0
KDO1 042353Z 18008KT 26/21 A2997 RMK A01 T02590211  RH  075%=      5-min Rain = 0
KDO1 042354Z 19008KT 26/21 A2997 RMK A01 T02600210  RH  074%=      5-min Rain = 0
KDO1 042355Z 20010KT 26/21 A2997 RMK A01 T02610208  RH  073%=      5-min Rain = 0
KDO1 042356Z 20009KT 26/21 A2997 RMK A01 T02610206  RH  072%=      5-min Rain = 0
KDO1 042357Z 20008KT 26/21 A2997 RMK A01 T02620206  RH  071%=      5-min Rain = 0
KDO1 042358Z 20007KT 26/21 A2997 RMK A01 T02620207  RH  071%=      5-min Rain = 0
KDO1 042359Z 20008KT 26/21 A2997 RMK A01 T02640205  RH  070%=      5-min Rain = 0
KDO1 050000Z 21008KT 27/21 A2997 RMK A01 T02650205  RH  069%=      5-min Rain = 0
KDO1 050001Z 21007KT 27/21 A2997 RMK A01 T02660206  RH  070%=      5-min Rain = 0
KDO1 050002Z 20007KT 27/21 A2997 RMK A01 T02660206  RH  070%=      5-min Rain = 0
KDO1 050003Z 20006KT 27/21 A2997 RMK A01 T02660206  RH  070%=      5-min Rain = 0
KDO1 050004Z 21006KT 27/20 A2997 RMK A01 T02670204  RH  068%=      5-min Rain = 0
KDO1 050005Z 20006KT 27/20 A2997 RMK A01 T02680203  RH  068%=      5-min Rain = 0
KDO1 050006Z 20007KT 27/20 A2997 RMK A01 T02670203  RH  068%=      5-min Rain = 0
KDO1 050007Z 20005KT 27/20 A2997 RMK A01 T02660203  RH  069%=      5-min Rain = 0
KDO1 050008Z 20006KT 26/20 A2997 RMK A01 T02640204  RH  070%=      5-min Rain = 0
KDO1 050009Z 22004KT 27/21 A2997 RMK A01 T02650206  RH  070%=      5-min Rain = 0
KDO1 050010Z 20006KT 27/21 A2997 RMK A01 T02680205  RH  069%=      5-min Rain = 0
KDO1 050011Z 21005KT 27/21 A2997 RMK A01 T02690205  RH  068%=      5-min Rain = 0
KDO1 050012Z 22006KT 27/21 A2997 RMK A01 T02690205  RH  068%=      5-min Rain = 0
KDO1 050013Z 21005KT 27/21 A2997 RMK A01 T02690205  RH  068%=      5-min Rain = 0
KDO1 050014Z 22006KT 27/20 A2997 RMK A01 T02690203  RH  067%=      5-min Rain = 0
KDO1 050015Z 21005KT 27/20 A2997 RMK A01 T02690202  RH  067%=      5-min Rain = 0
KDO1 050016Z 21005KT 27/20 A2997 RMK A01 T02680203  RH  067%=      5-min Rain = 0
KDO1 050017Z 20004KT 27/20 A2997 RMK A01 T02680202  RH  067%=      5-min Rain = 0
KDO1 050018Z 20004KT 27/20 A2997 RMK A01 T02680203  RH  068%=      5-min Rain = 0
KDO1 050019Z 19002KT 27/20 A2997 RMK A01 T02680204  RH  068%=      5-min Rain = 0
KDO1 050020Z 19004KT 27/20 A2997 RMK A01 T02680204  RH  068%=      5-min Rain = 0
KDO1 050021Z 18004KT 27/20 A2997 RMK A01 T02690203  RH  067%=      5-min Rain = 0
KDO1 050022Z 18004KT 27/20 A2997 RMK A01 T02710204  RH  067%=      5-min Rain = 0
KDO1 050023Z 18004KT 27/20 A2997 RMK A01 T02740203  RH  065%=      5-min Rain = 0
KDO1 050024Z 18006KT 28/20 A2997 RMK A01 T02760200  RH  063%=      5-min Rain = 0
KDO1 050025Z 18004KT 28/20 A2997 RMK A01 T02760200  RH  063%=      5-min Rain = 0
KDO1 050026Z 18005KT 28/20 A2996 RMK A01 T02750196  RH  062%=      5-min Rain = 0
KDO1 050027Z 20004KT 28/20 A2996 RMK A01 T02750196  RH  062%=      5-min Rain = 0
KDO1 050028Z 18006KT 28/20 A2996 RMK A01 T02750197  RH  062%=      5-min Rain = 0
KDO1 050029Z 17005KT 28/20 A2996 RMK A01 T02750195  RH  061%=      5-min Rain = 0
KDO1 050030Z 16006KT 28/19 A2996 RMK A01 T02760194  RH  061%=      5-min Rain = 0
KDO1 050031Z 17005KT 28/19 A2996 RMK A01 T02750194  RH  061%=      5-min Rain = 0
KDO1 050032Z 16004KT 28/20 A2996 RMK A01 T02750196  RH  062%=      5-min Rain = 0
KDO1 050033Z 17002KT 28/20 A2996 RMK A01 T02750197  RH  062%=      5-min Rain = 0
KDO1 050034Z 19003KT 28/20 A2996 RMK A01 T02750197  RH  062%=      5-min Rain = 0
KDO1 050035Z 17004KT 28/20 A2996 RMK A01 T02760197  RH  062%=      5-min Rain = 0
KDO1 050036Z 19003KT 28/20 A2996 RMK A01 T02770196  RH  061%=      5-min Rain = 0
KDO1 050037Z 17003KT 28/20 A2996 RMK A01 T02780197  RH  061%=      5-min Rain = 0
KDO1 050038Z 19003KT 28/20 A2996 RMK A01 T02790197  RH  061%=      5-min Rain = 0
KDO1 050039Z 18004KT 28/20 A2996 RMK A01 T02780197  RH  061%=      5-min Rain = 0
KDO1 050040Z 17003KT 28/20 A2996 RMK A01 T02780198  RH  062%=      5-min Rain = 0
KDO1 050041Z 18003KT 28/20 A2996 RMK A01 T02780198  RH  062%=      5-min Rain = 0
KDO1 050042Z 20003KT 28/20 A2996 RMK A01 T02780197  RH  062%=      5-min Rain = 0
KDO1 050043Z 20002KT 28/20 A2996 RMK A01 T02770198  RH  062%=      5-min Rain = 0
KDO1 050044Z 21002KT 28/20 A2996 RMK A01 T02770198  RH  062%=      5-min Rain = 0
KDO1 050045Z 21002KT 28/20 A2996 RMK A01 T02770198  RH  062%=      5-min Rain = 0
KDO1 050046Z 22002KT 28/20 A2996 RMK A01 T02780197  RH  061%=      5-min Rain = 0
KDO1 050047Z 22002KT 28/20 A2996 RMK A01 T02780198  RH  061%=      5-min Rain = 0
KDO1 050048Z 22002KT 28/20 A2996 RMK A01 T02790199  RH  062%=      5-min Rain = 0
KDO1 050049Z 23002KT 28/20 A2996 RMK A01 T02800199  RH  062%=      5-min Rain = 0
KDO1 050050Z 22002KT 28/20 A2996 RMK A01 T02800198  RH  061%=      5-min Rain = 0
KDO1 050051Z 22002KT 28/20 A2996 RMK A01 T02800198  RH  061%=      5-min Rain = 0
KDO1 050052Z 22001KT 28/20 A2996 RMK A01 T02800198  RH  061%=      5-min Rain = 0
KDO1 050053Z 21002KT 28/20 A2996 RMK A01 T02810199  RH  061%=      5-min Rain = 0
KDO1 050054Z 22001KT 28/20 A2996 RMK A01 T02810199  RH  061%=      5-min Rain = 0
KDO1 050055Z 20000KT 28/20 A2996 RMK A01 T02800199  RH  062%=      5-min Rain = 0
KDO1 050056Z 10001KT 28/20 A2996 RMK A01 T02800200  RH  062%=      5-min Rain = 0
KDO1 050057Z 09001KT 28/20 A2996 RMK A01 T02800200  RH  062%=      5-min Rain = 0
KDO1 050058Z 00000KT 28/20 A2996 RMK A01 T02800200  RH  062%=      5-min Rain = 0
KDO1 050059Z 00000KT 28/20 A2995 RMK A01 T02800200  RH  062%=      5-min Rain = 0
KDO1 050100Z 00000KT 28/20 A2995 RMK A01 T02820199  RH  061%=      5-min Rain = 0
KDO1 050101Z 00000KT 28/20 A2995 RMK A01 T02830201  RH  061%=      5-min Rain = 0
KDO1 050102Z 00000KT 28/20 A2995 RMK A01 T02840200  RH  061%=      5-min Rain = 0
KDO1 050103Z 11001KT 28/20 A2995 RMK A01 T02840200  RH  061%=      5-min Rain = 0
KDO1 050104Z 10002KT 28/20 A2995 RMK A01 T02840201  RH  061%=      5-min Rain = 0
KDO1 050105Z 09002KT 28/20 A2995 RMK A01 T02830202  RH  061%=      5-min Rain = 0
KDO1 050106Z 09002KT 28/20 A2995 RMK A01 T02830202  RH  061%=      5-min Rain = 0
KDO1 050107Z 09002KT 28/20 A2995 RMK A01 T02830201  RH  061%=      5-min Rain = 0
KDO1 050108Z 09003KT 28/20 A2995 RMK A01 T02820200  RH  061%=      5-min Rain = 0
KDO1 050109Z 10002KT 28/20 A2995 RMK A01 T02820200  RH  061%=      5-min Rain = 0
KDO1 050110Z 09002KT 28/20 A2995 RMK A01 T02800199  RH  061%=      5-min Rain = 0
KDO1 050111Z 05002KT 28/20 A2995 RMK A01 T02800199  RH  062%=      5-min Rain = 0
KDO1 050112Z 06002KT 28/20 A2995 RMK A01 T02790199  RH  062%=      5-min Rain = 0
KDO1 050113Z 06001KT 28/20 A2995 RMK A01 T02790199  RH  062%=      5-min Rain = 0
KDO1 050114Z 05002KT 28/20 A2995 RMK A01 T02790198  RH  062%=      5-min Rain = 0
KDO1 050115Z 05001KT 28/20 A2995 RMK A01 T02790198  RH  061%=      5-min Rain = 0
KDO1 050116Z 04002KT 28/20 A2995 RMK A01 T02790196  RH  061%=      5-min Rain = 0
KDO1 050117Z 04002KT 28/20 A2995 RMK A01 T02790195  RH  060%=      5-min Rain = 0
KDO1 050118Z 04002KT 28/20 A2995 RMK A01 T02790195  RH  060%=      5-min Rain = 0
KDO1 050119Z 07002KT 28/20 A2995 RMK A01 T02780196  RH  061%=      5-min Rain = 0
KDO1 050120Z 07002KT 28/20 A2995 RMK A01 T02780196  RH  061%=      5-min Rain = 0
KDO1 050121Z 08001KT 28/20 A2996 RMK A01 T02780195  RH  061%=      5-min Rain = 0
KDO1 050122Z 08000KT 28/20 A2996 RMK A01 T02780195  RH  061%=      5-min Rain = 0
KDO1 050123Z 07000KT 28/20 A2996 RMK A01 T02790195  RH  060%=      5-min Rain = 0
KDO1 050124Z 03001KT 28/20 A2996 RMK A01 T02790195  RH  060%=      5-min Rain = 0
KDO1 050125Z 04002KT 28/20 A2996 RMK A01 T02790196  RH  061%=      5-min Rain = 0
KDO1 050126Z 04001KT 28/20 A2996 RMK A01 T02790196  RH  061%=      5-min Rain = 0
KDO1 050127Z 05001KT 28/20 A2996 RMK A01 T02780196  RH  061%=      5-min Rain = 0
KDO1 050128Z 06001KT 28/20 A2996 RMK A01 T02780196  RH  061%=      5-min Rain = 0
KDO1 050129Z 06000KT 28/20 A2996 RMK A01 T02780197  RH  061%=      5-min Rain = 0
KDO1 050130Z 04000KT 28/20 A2996 RMK A01 T02780197  RH  061%=      5-min Rain = 0
KDO1 050131Z 06000KT 28/20 A2996 RMK A01 T02780197  RH  062%=      5-min Rain = 0
KDO1 050132Z 06001KT 28/20 A2996 RMK A01 T02770197  RH  062%=      5-min Rain = 0
KDO1 050133Z 06001KT 28/20 A2996 RMK A01 T02770196  RH  061%=      5-min Rain = 0
KDO1 050134Z 07001KT 28/20 A2996 RMK A01 T02770196  RH  062%=      5-min Rain = 0
KDO1 050135Z 06001KT 28/20 A2996 RMK A01 T02760196  RH  062%=      5-min Rain = 0
KDO1 050136Z 06001KT 28/20 A2997 RMK A01 T02760197  RH  062%=      5-min Rain = 0
KDO1 050137Z 07001KT 28/20 A2997 RMK A01 T02760197  RH  062%=      5-min Rain = 0
KDO1 050138Z 06000KT 28/20 A2997 RMK A01 T02750197  RH  062%=      5-min Rain = 0
KDO1 050139Z 00000KT 28/20 A2997 RMK A01 T02760197  RH  062%=      5-min Rain = 0
KDO1 050140Z 11001KT 28/20 A2997 RMK A01 T02750197  RH  062%=      5-min Rain = 0
KDO1 050141Z 13002KT 28/20 A2997 RMK A01 T02750198  RH  063%=      5-min Rain = 0
KDO1 050142Z 14003KT 28/20 A2997 RMK A01 T02750198  RH  063%=      5-min Rain = 0
KDO1 050143Z 14004KT 27/20 A2997 RMK A01 T02740198  RH  063%=      5-min Rain = 0
KDO1 050144Z 14004KT 27/20 A2997 RMK A01 T02730197  RH  063%=      5-min Rain = 0
KDO1 050145Z 14004KT 27/20 A2997 RMK A01 T02720197  RH  063%=      5-min Rain = 0
KDO1 050146Z 14003KT 27/20 A2997 RMK A01 T02720196  RH  063%=      5-min Rain = 0
KDO1 050147Z 14003KT 27/20 A2997 RMK A01 T02720196  RH  063%=      5-min Rain = 0
KDO1 050148Z 15004KT 27/20 A2997 RMK A01 T02710196  RH  064%=      5-min Rain = 0
KDO1 050149Z 17003KT 27/20 A2997 RMK A01 T02710198  RH  064%=      5-min Rain = 0
KDO1 050150Z 17004KT 27/20 A2997 RMK A01 T02700199  RH  065%=      5-min Rain = 0
KDO1 050151Z 17004KT 27/20 A2997 RMK A01 T02700201  RH  066%=      5-min Rain = 0
KDO1 050152Z 18004KT 27/20 A2997 RMK A01 T02690203  RH  067%=      5-min Rain = 0
KDO1 050153Z 18004KT 27/20 A2997 RMK A01 T02680203  RH  068%=      5-min Rain = 0
KDO1 050154Z 18004KT 27/20 A2997 RMK A01 T02660202  RH  068%=      5-min Rain = 0
KDO1 050155Z 18004KT 27/20 A2997 RMK A01 T02650201  RH  068%=      5-min Rain = 0
KDO1 050156Z 18005KT 26/20 A2997 RMK A01 T02640200  RH  068%=      5-min Rain = 0
KDO1 050157Z 18004KT 26/20 A2997 RMK A01 T02630199  RH  068%=      5-min Rain = 0
KDO1 050158Z 18004KT 26/20 A2997 RMK A01 T02630199  RH  068%=      5-min Rain = 0
KDO1 050159Z 17004KT 26/20 A2997 RMK A01 T02620200  RH  069%=      5-min Rain = 0
KDO1 050200Z 17004KT 26/20 A2997 RMK A01 T02610200  RH  069%=      5-min Rain = 0
KDO1 050201Z 17003KT 26/20 A2997 RMK A01 T02610201  RH  069%=      5-min Rain = 0
KDO1 050202Z 16004KT 26/20 A2998 RMK A01 T02600201  RH  070%=      5-min Rain = 0
KDO1 050203Z 16004KT 26/20 A2998 RMK A01 T02600201  RH  070%=      5-min Rain = 0
KDO1 050204Z 16003KT 26/20 A2998 RMK A01 T02600201  RH  070%=      5-min Rain = 0
KDO1 050205Z 17003KT 26/20 A2998 RMK A01 T02590201  RH  070%=      5-min Rain = 0
KDO1 050206Z 17004KT 26/20 A2998 RMK A01 T02590202  RH  071%=      5-min Rain = 0
KDO1 050207Z 18004KT 26/20 A2998 RMK A01 T02590202  RH  071%=      5-min Rain = 0
KDO1 050208Z 18004KT 26/20 A2998 RMK A01 T02580203  RH  071%=      5-min Rain = 0
KDO1 050209Z 18004KT 26/20 A2998 RMK A01 T02580203  RH  072%=      5-min Rain = 0
KDO1 050210Z 18004KT 26/20 A2998 RMK A01 T02570203  RH  072%=      5-min Rain = 0
KDO1 050211Z 17004KT 26/20 A2998 RMK A01 T02570203  RH  072%=      5-min Rain = 0
KDO1 050212Z 17004KT 26/20 A2998 RMK A01 T02560203  RH  072%=      5-min Rain = 0
KDO1 050213Z 17004KT 26/20 A2998 RMK A01 T02560203  RH  072%=      5-min Rain = 0
KDO1 050214Z 17004KT 26/20 A2998 RMK A01 T02550202  RH  073%=      5-min Rain = 0
KDO1 050215Z 18003KT 26/20 A2998 RMK A01 T02550203  RH  073%=      5-min Rain = 0
KDO1 050216Z 18003KT 26/20 A2998 RMK A01 T02550203  RH  073%=      5-min Rain = 0
KDO1 050217Z 18003KT 25/20 A2998 RMK A01 T02540203  RH  073%=      5-min Rain = 0
KDO1 050218Z 18003KT 26/20 A2998 RMK A01 T02550204  RH  073%=      5-min Rain = 0
KDO1 050219Z 17004KT 25/20 A2998 RMK A01 T02540204  RH  074%=      5-min Rain = 0
KDO1 050220Z 18004KT 25/20 A2998 RMK A01 T02540203  RH  073%=      5-min Rain = 0
KDO1 050221Z 18004KT 25/20 A2998 RMK A01 T02540202  RH  073%=      5-min Rain = 0
KDO1 050222Z 18004KT 25/20 A2998 RMK A01 T02540202  RH  073%=      5-min Rain = 0
KDO1 050223Z 18004KT 25/20 A2998 RMK A01 T02540201  RH  073%=      5-min Rain = 0
KDO1 050224Z 18004KT 25/20 A2998 RMK A01 T02540201  RH  073%=      5-min Rain = 0
KDO1 050225Z 18004KT 25/20 A2998 RMK A01 T02540202  RH  073%=      5-min Rain = 0
KDO1 050226Z 19003KT 25/20 A2998 RMK A01 T02540203  RH  073%=      5-min Rain = 0
KDO1 050227Z 19003KT 25/20 A2998 RMK A01 T02530203  RH  074%=      5-min Rain = 0
KDO1 050228Z 19003KT 25/20 A2998 RMK A01 T02530203  RH  074%=      5-min Rain = 0
KDO1 050229Z 19003KT 25/20 A2998 RMK A01 T02530203  RH  074%=      5-min Rain = 0
KDO1 050230Z 18003KT 25/20 A2998 RMK A01 T02530204  RH  074%=      5-min Rain = 0
KDO1 050231Z 18003KT 25/20 A2998 RMK A01 T02520204  RH  074%=      5-min Rain = 0
KDO1 050232Z 18004KT 25/20 A2998 RMK A01 T02520204  RH  075%=      5-min Rain = 0
KDO1 050233Z 18004KT 25/20 A2999 RMK A01 T02520204  RH  075%=      5-min Rain = 0
KDO1 050234Z 19003KT 25/21 A2999 RMK A01 T02520205  RH  075%=      5-min Rain = 0
KDO1 050235Z 20003KT 25/20 A2998 RMK A01 T02510204  RH  075%=      5-min Rain = 0
KDO1 050236Z 20003KT 25/21 A2998 RMK A01 T02510205  RH  075%=      5-min Rain = 0
KDO1 050237Z 22003KT 25/21 A2998 RMK A01 T02510205  RH  076%=      5-min Rain = 0
KDO1 050238Z 23002KT 25/21 A2998 RMK A01 T02500206  RH  077%=      5-min Rain = 0
KDO1 050239Z 22003KT 25/21 A2999 RMK A01 T02490209  RH  078%=      5-min Rain = 0
KDO1 050240Z 22003KT 25/21 A2999 RMK A01 T02470210  RH  080%=      5-min Rain = 0
KDO1 050241Z 22003KT 25/21 A2999 RMK A01 T02460211  RH  081%=      5-min Rain = 0
KDO1 050242Z 22003KT 25/21 A2999 RMK A01 T02450213  RH  082%=      5-min Rain = 0
KDO1 050243Z 22003KT 25/21 A2999 RMK A01 T02450214  RH  083%=      5-min Rain = 0
KDO1 050244Z 22002KT 24/21 A2999 RMK A01 T02440214  RH  083%=      5-min Rain = 0
KDO1 050245Z 23002KT 24/22 A2999 RMK A01 T02440215  RH  084%=      5-min Rain = 0
KDO1 050246Z 24002KT 24/22 A2999 RMK A01 T02440215  RH  084%=      5-min Rain = 0
KDO1 050247Z 25003KT 24/22 A2999 RMK A01 T02440215  RH  084%=      5-min Rain = 0
KDO1 050248Z 25003KT 24/22 A2999 RMK A01 T02440216  RH  084%=      5-min Rain = 0
KDO1 050249Z 25003KT 24/22 A2999 RMK A01 T02440215  RH  084%=      5-min Rain = 0
KDO1 050250Z 25002KT 24/22 A2999 RMK A01 T02440215  RH  084%=      5-min Rain = 0
KDO1 050251Z 25002KT 24/22 A2999 RMK A01 T02440215  RH  084%=      5-min Rain = 0
KDO1 050252Z 24002KT 24/22 A2999 RMK A01 T02440216  RH  084%=      5-min Rain = 0
KDO1 050253Z 24002KT 24/22 A2999 RMK A01 T02440217  RH  085%=      5-min Rain = 0
KDO1 050254Z 24001KT 25/22 A2999 RMK A01 T02450217  RH  085%=      5-min Rain = 0
KDO1 050255Z 25001KT 24/22 A2998 RMK A01 T02440217  RH  084%=      5-min Rain = 0
KDO1 050256Z 24000KT 24/22 A2998 RMK A01 T02440216  RH  084%=      5-min Rain = 0
KDO1 050257Z 24000KT 25/22 A2998 RMK A01 T02450216  RH  084%=      5-min Rain = 0
KDO1 050258Z 23001KT 24/22 A2998 RMK A01 T02440216  RH  084%=      5-min Rain = 0
KDO1 050259Z 24001KT 24/22 A2998 RMK A01 T02440215  RH  084%=      5-min Rain = 0
KDO1 050300Z 24001KT 24/22 A2998 RMK A01 T02440215  RH  084%=      5-min Rain = 0
KDO1 050301Z 24001KT 25/22 A2998 RMK A01 T02450215  RH  084%=      5-min Rain = 0
KDO1 050302Z 24001KT 24/22 A2998 RMK A01 T02440215  RH  084%=      5-min Rain = 0
KDO1 050303Z 24001KT 25/22 A2998 RMK A01 T02450215  RH  084%=      5-min Rain = 0
KDO1 050304Z 23000KT 25/22 A2998 RMK A01 T02450215  RH  084%=      5-min Rain = 0
KDO1 050305Z 00000KT 24/22 A2998 RMK A01 T02440215  RH  084%=      5-min Rain = 0
KDO1 050306Z 00000KT 24/21 A2998 RMK A01 T02440214  RH  083%=      5-min Rain = 0
KDO1 050307Z 00000KT 24/21 A2998 RMK A01 T02440214  RH  083%=      5-min Rain = 0
KDO1 050308Z 00000KT 25/21 A2998 RMK A01 T02450213  RH  083%=      5-min Rain = 0
KDO1 050309Z 00000KT 25/21 A2998 RMK A01 T02450213  RH  082%=      5-min Rain = 0
KDO1 050310Z 00000KT 25/21 A2998 RMK A01 T02450213  RH  082%=      5-min Rain = 0
KDO1 050311Z 00000KT 25/21 A2998 RMK A01 T02450212  RH  082%=      5-min Rain = 0
KDO1 050312Z 00000KT 25/21 A2998 RMK A01 T02460211  RH  081%=      5-min Rain = 0
KDO1 050313Z 33000KT 25/21 A2998 RMK A01 T02450211  RH  081%=      5-min Rain = 0
KDO1 050314Z 33000KT 25/21 A2998 RMK A01 T02450212  RH  082%=      5-min Rain = 0
KDO1 050315Z 34001KT 25/21 A2998 RMK A01 T02450212  RH  081%=      5-min Rain = 0
KDO1 050316Z 35001KT 25/21 A2998 RMK A01 T02450211  RH  081%=      5-min Rain = 0
KDO1 050317Z 36001KT 25/21 A2998 RMK A01 T02450210  RH  081%=      5-min Rain = 0
KDO1 050318Z 36001KT 25/21 A2998 RMK A01 T02450211  RH  081%=      5-min Rain = 0
KDO1 050319Z 35000KT 24/21 A2998 RMK A01 T02440212  RH  082%=      5-min Rain = 0
KDO1 050320Z 01000KT 24/21 A2998 RMK A01 T02440212  RH  082%=      5-min Rain = 0
KDO1 050321Z 01001KT 24/21 A2998 RMK A01 T02440211  RH  082%=      5-min Rain = 0
KDO1 050322Z 02001KT 24/21 A2998 RMK A01 T02440211  RH  082%=      5-min Rain = 0
KDO1 050323Z 02001KT 24/21 A2998 RMK A01 T02440211  RH  082%=      5-min Rain = 0
KDO1 050324Z 01000KT 24/21 A2998 RMK A01 T02440211  RH  082%=      5-min Rain = 0
KDO1 050325Z 00000KT 24/21 A2998 RMK A01 T02430210  RH  082%=      5-min Rain = 0
KDO1 050326Z 00000KT 24/21 A2998 RMK A01 T02430210  RH  082%=      5-min Rain = 0
KDO1 050327Z 00000KT 24/21 A2998 RMK A01 T02420209  RH  082%=      5-min Rain = 0
KDO1 050328Z 00000KT 24/21 A2998 RMK A01 T02420210  RH  082%=      5-min Rain = 0
KDO1 050329Z 00000KT 24/21 A2998 RMK A01 T02410209  RH  082%=      5-min Rain = 0
KDO1 050330Z 00000KT 24/21 A2998 RMK A01 T02410209  RH  082%=      5-min Rain = 0
KDO1 050331Z 00000KT 24/21 A2999 RMK A01 T02410210  RH  083%=      5-min Rain = 0
KDO1 050332Z 00000KT 24/21 A2999 RMK A01 T02410210  RH  083%=      5-min Rain = 0
KDO1 050333Z 35001KT 24/21 A2999 RMK A01 T02400210  RH  083%=      5-min Rain = 0
KDO1 050334Z 34001KT 24/21 A2999 RMK A01 T02400209  RH  083%=      5-min Rain = 0
KDO1 050335Z 33001KT 24/21 A2999 RMK A01 T02390209  RH  083%=      5-min Rain = 0
KDO1 050336Z 33001KT 24/21 A2999 RMK A01 T02390209  RH  083%=      5-min Rain = 0
KDO1 050337Z 33000KT 24/21 A2999 RMK A01 T02390208  RH  083%=      5-min Rain = 0
KDO1 050338Z 00000KT 24/21 A2999 RMK A01 T02390209  RH  083%=      5-min Rain = 0
KDO1 050339Z 00000KT 24/21 A2999 RMK A01 T02390209  RH  083%=      5-min Rain = 0
KDO1 050340Z 00000KT 24/21 A2999 RMK A01 T02390210  RH  084%=      5-min Rain = 0
KDO1 050341Z 00000KT 24/21 A2999 RMK A01 T02390208  RH  083%=      5-min Rain = 0
KDO1 050342Z 00000KT 24/21 A2999 RMK A01 T02380208  RH  083%=      5-min Rain = 0
KDO1 050343Z 00000KT 24/21 A2999 RMK A01 T02380209  RH  084%=      5-min Rain = 0
KDO1 050344Z 00000KT 24/21 A2999 RMK A01 T02380209  RH  084%=      5-min Rain = 0
KDO1 050345Z 04000KT 24/21 A2998 RMK A01 T02380209  RH  083%=      5-min Rain = 0
KDO1 050346Z 04001KT 24/21 A2998 RMK A01 T02380209  RH  083%=      5-min Rain = 0
KDO1 050347Z 03001KT 24/21 A2998 RMK A01 T02390209  RH  084%=      5-min Rain = 0
KDO1 050348Z 03000KT 24/21 A2998 RMK A01 T02380208  RH  083%=      5-min Rain = 0
KDO1 050349Z 03001KT 24/21 A2998 RMK A01 T02380208  RH  083%=      5-min Rain = 0
KDO1 050350Z 03001KT 24/21 A2998 RMK A01 T02370208  RH  083%=      5-min Rain = 0
KDO1 050351Z 03001KT 24/21 A2998 RMK A01 T02370208  RH  084%=      5-min Rain = 0
KDO1 050352Z 03002KT 24/21 A2998 RMK A01 T02370208  RH  084%=      5-min Rain = 0
KDO1 050353Z 03002KT 24/21 A2998 RMK A01 T02370210  RH  085%=      5-min Rain = 0
KDO1 050354Z 03002KT 24/21 A2998 RMK A01 T02370210  RH  085%=      5-min Rain = 0
KDO1 050355Z 03003KT 24/21 A2998 RMK A01 T02370209  RH  084%=      5-min Rain = 0
KDO1 050356Z 02003KT 24/21 A2998 RMK A01 T02380209  RH  084%=      5-min Rain = 0
KDO1 050357Z 02003KT 24/21 A2998 RMK A01 T02380209  RH  084%=      5-min Rain = 0
KDO1 050358Z 02003KT 24/21 A2998 RMK A01 T02380209  RH  084%=      5-min Rain = 0
KDO1 050359Z 02003KT 24/21 A2998 RMK A01 T02380209  RH  084%=      5-min Rain = 0
KDO1 050400Z 00002KT 24/21 A2998 RMK A01 T02380209  RH  084%=      5-min Rain = 0
KDO1 050401Z 00002KT 24/21 A2998 RMK A01 T02380208  RH  084%=      5-min Rain = 0
KDO1 050402Z 36003KT 24/21 A2998 RMK A01 T02380208  RH  084%=      5-min Rain = 0
KDO1 050403Z 35003KT 24/21 A2998 RMK A01 T02370208  RH  084%=      5-min Rain = 0
KDO1 050404Z 35003KT 24/21 A2998 RMK A01 T02370207  RH  083%=      5-min Rain = 0
KDO1 050405Z 34003KT 24/21 A2998 RMK A01 T02360206  RH  083%=      5-min Rain = 0
KDO1 050406Z 34003KT 24/21 A2998 RMK A01 T02360205  RH  083%=      5-min Rain = 0
KDO1 050407Z 33003KT 24/21 A2998 RMK A01 T02350205  RH  083%=      5-min Rain = 0
KDO1 050408Z 33003KT 23/21 A2998 RMK A01 T02340205  RH  084%=      5-min Rain = 0
KDO1 050409Z 32003KT 23/20 A2998 RMK A01 T02330204  RH  084%=      5-min Rain = 0
KDO1 050410Z 32003KT 23/20 A2998 RMK A01 T02320204  RH  084%=      5-min Rain = 0
KDO1 050411Z 32003KT 23/20 A2998 RMK A01 T02320204  RH  084%=      5-min Rain = 0
KDO1 050412Z 32003KT 23/21 A2998 RMK A01 T02310205  RH  085%=      5-min Rain = 0
KDO1 050413Z 33004KT 23/20 A2998 RMK A01 T02310204  RH  085%=      5-min Rain = 0
KDO1 050414Z 33004KT 23/21 A2998 RMK A01 T02310205  RH  085%=      5-min Rain = 0
KDO1 050415Z 33003KT 23/21 A2998 RMK A01 T02310205  RH  085%=      5-min Rain = 0
KDO1 050416Z 34004KT 23/21 A2998 RMK A01 T02320206  RH  085%=      5-min Rain = 0
KDO1 050417Z 34003KT 23/21 A2998 RMK A01 T02320205  RH  085%=      5-min Rain = 0
KDO1 050418Z 34003KT 23/21 A2998 RMK A01 T02330206  RH  085%=      5-min Rain = 0
KDO1 050419Z 34003KT 23/21 A2998 RMK A01 T02330206  RH  085%=      5-min Rain = 0
KDO1 050420Z 34003KT 23/21 A2998 RMK A01 T02330206  RH  085%=      5-min Rain = 0
KDO1 050421Z 34003KT 23/21 A2998 RMK A01 T02330205  RH  084%=      5-min Rain = 0
KDO1 050422Z 34003KT 23/21 A2998 RMK A01 T02330206  RH  085%=      5-min Rain = 0
KDO1 050423Z 34002KT 23/21 A2998 RMK A01 T02330206  RH  085%=      5-min Rain = 0
KDO1 050424Z 34002KT 23/21 A2998 RMK A01 T02330205  RH  084%=      5-min Rain = 0
KDO1 050425Z 34003KT 23/21 A2998 RMK A01 T02330205  RH  084%=      5-min Rain = 0
KDO1 050426Z 34003KT 23/21 A2998 RMK A01 T02330205  RH  084%=      5-min Rain = 0
KDO1 050427Z 34003KT 23/20 A2998 RMK A01 T02330204  RH  084%=      5-min Rain = 0
KDO1 050428Z 34003KT 23/20 A2998 RMK A01 T02330204  RH  084%=      5-min Rain = 0
KDO1 050429Z 33003KT 23/20 A2998 RMK A01 T02320204  RH  084%=      5-min Rain = 0
KDO1 050430Z 32003KT 23/20 A2998 RMK A01 T02310204  RH  085%=      5-min Rain = 0
KDO1 050431Z 32003KT 23/21 A2998 RMK A01 T02320205  RH  085%=      5-min Rain = 0
KDO1 050432Z 31003KT 23/21 A2998 RMK A01 T02320205  RH  085%=      5-min Rain = 0
KDO1 050433Z 31003KT 23/21 A2998 RMK A01 T02330206  RH  085%=      5-min Rain = 0
KDO1 050434Z 30003KT 23/21 A2998 RMK A01 T02330205  RH  084%=      5-min Rain = 0
KDO1 050435Z 31004KT 23/21 A2998 RMK A01 T02330205  RH  084%=      5-min Rain = 0
KDO1 050436Z 30004KT 23/21 A2998 RMK A01 T02330206  RH  084%=      5-min Rain = 0
KDO1 050437Z 30004KT 23/21 A2998 RMK A01 T02330206  RH  085%=      5-min Rain = 0
KDO1 050438Z 30003KT 23/21 A2998 RMK A01 T02340206  RH  084%=      5-min Rain = 0
KDO1 050439Z 30003KT 24/21 A2998 RMK A01 T02350206  RH  084%=      5-min Rain = 0
KDO1 050440Z 29003KT 24/21 A2998 RMK A01 T02360206  RH  083%=      5-min Rain = 0
KDO1 050441Z 29003KT 24/21 A2998 RMK A01 T02370205  RH  083%=      5-min Rain = 0
KDO1 050442Z 28003KT 24/21 A2998 RMK A01 T02370205  RH  082%=      5-min Rain = 0
KDO1 050443Z 29002KT 24/21 A2998 RMK A01 T02370205  RH  082%=      5-min Rain = 0
KDO1 050444Z 29002KT 24/20 A2998 RMK A01 T02360204  RH  082%=      5-min Rain = 0
KDO1 050445Z 29002KT 24/20 A2998 RMK A01 T02360204  RH  083%=      5-min Rain = 0
KDO1 050446Z 30002KT 24/20 A2998 RMK A01 T02350204  RH  083%=      5-min Rain = 0
KDO1 050447Z 28002KT 23/20 A2998 RMK A01 T02340204  RH  083%=      5-min Rain = 0
KDO1 050448Z 28003KT 23/20 A2998 RMK A01 T02330204  RH  084%=      5-min Rain = 0
KDO1 050449Z 28003KT 23/20 A2998 RMK A01 T02330204  RH  084%=      5-min Rain = 0
KDO1 050450Z 29004KT 23/20 A2998 RMK A01 T02320204  RH  084%=      5-min Rain = 0
KDO1 050451Z 29004KT 23/20 A2998 RMK A01 T02310204  RH  084%=      5-min Rain = 0
KDO1 050452Z 30004KT 23/20 A2998 RMK A01 T02310203  RH  085%=      5-min Rain = 0
KDO1 050453Z 30004KT 23/20 A2998 RMK A01 T02300203  RH  085%=      5-min Rain = 0
KDO1 050454Z 30005KT 23/20 A2998 RMK A01 T02300202  RH  084%=      5-min Rain = 0
KDO1 050455Z 30005KT 23/20 A2998 RMK A01 T02300201  RH  084%=      5-min Rain = 0
KDO1 050456Z 29005KT 23/20 A2998 RMK A01 T02290201  RH  084%=      5-min Rain = 0
KDO1 050457Z 30005KT 23/20 A2998 RMK A01 T02290200  RH  083%=      5-min Rain = 0
KDO1 050458Z 29005KT 23/20 A2998 RMK A01 T02290199  RH  083%=      5-min Rain = 0
KDO1 050459Z 29005KT 23/20 A2998 RMK A01 T02290199  RH  083%=      5-min Rain = 0

Page generated in 0.1261 seconds.